<?xml version="1.0" encoding="UTF-8" standalone="no" ?>
<gpx xmlns="http://www.topografix.com/GPX/1/1" xmlns:xsi="http://www.w3.org/2001/XMLSchema-instance" xsi:schemaLocation="http://www.topografix.com/GPX/1/1 http://www.topografix.com/GPX/1/1/gpx.xsd" version="1.1" creator="VisuGPX - https://www.visugpx.com">
  <metadata>
    <name>18/1/2018 Bec Charvet et Mont Pravouta</name>
    <desc><![CDATA[Qui trop regarde la météo reste au bistrot ]]></desc>
  </metadata>
  <trk>
    <name><![CDATA[bec Charvet et Mont Pravouta]]></name>
    <trkseg>
      <trkpt lat="45.30022" lon="5.84184">
        <ele>1274.6</ele>
        <time>2018-01-18T09:03:18Z</time>
      </trkpt>
      <trkpt lat="45.30034" lon="5.84149">
        <ele>1277.5</ele>
        <time>2018-01-18T09:04:22Z</time>
      </trkpt>
      <trkpt lat="45.30042" lon="5.84142">
        <ele>1280.2</ele>
        <time>2018-01-18T09:04:33Z</time>
      </trkpt>
      <trkpt lat="45.30048" lon="5.84143">
        <ele>1282</ele>
        <time>2018-01-18T09:04:39Z</time>
      </trkpt>
      <trkpt lat="45.30055" lon="5.84141">
        <ele>1285.1</ele>
        <time>2018-01-18T09:04:51Z</time>
      </trkpt>
      <trkpt lat="45.30063" lon="5.84133">
        <ele>1287.7</ele>
        <time>2018-01-18T09:05:05Z</time>
      </trkpt>
      <trkpt lat="45.3007" lon="5.84132">
        <ele>1289.6</ele>
        <time>2018-01-18T09:05:17Z</time>
      </trkpt>
      <trkpt lat="45.30077" lon="5.84127">
        <ele>1292.8</ele>
        <time>2018-01-18T09:05:28Z</time>
      </trkpt>
      <trkpt lat="45.30081" lon="5.84091">
        <ele>1298.5</ele>
        <time>2018-01-18T09:06:19Z</time>
      </trkpt>
      <trkpt lat="45.30088" lon="5.84083">
        <ele>1299.5</ele>
        <time>2018-01-18T09:06:36Z</time>
      </trkpt>
      <trkpt lat="45.30089" lon="5.84077">
        <ele>1299.9</ele>
        <time>2018-01-18T09:06:42Z</time>
      </trkpt>
      <trkpt lat="45.30096" lon="5.84073">
        <ele>1300.8</ele>
        <time>2018-01-18T09:06:53Z</time>
      </trkpt>
      <trkpt lat="45.30098" lon="5.84072">
        <ele>1301</ele>
        <time>2018-01-18T09:07:16Z</time>
      </trkpt>
      <trkpt lat="45.30096" lon="5.84068">
        <ele>1301.4</ele>
        <time>2018-01-18T09:08:09Z</time>
      </trkpt>
      <trkpt lat="45.30098" lon="5.84065">
        <ele>1301.8</ele>
        <time>2018-01-18T09:08:20Z</time>
      </trkpt>
      <trkpt lat="45.30126" lon="5.84065">
        <ele>1304.4</ele>
        <time>2018-01-18T09:08:50Z</time>
      </trkpt>
      <trkpt lat="45.30156" lon="5.84055">
        <ele>1306.5</ele>
        <time>2018-01-18T09:09:20Z</time>
      </trkpt>
      <trkpt lat="45.30166" lon="5.84051">
        <ele>1307.4</ele>
        <time>2018-01-18T09:09:31Z</time>
      </trkpt>
      <trkpt lat="45.30189" lon="5.8405">
        <ele>1308.9</ele>
        <time>2018-01-18T09:09:55Z</time>
      </trkpt>
      <trkpt lat="45.30203" lon="5.84058">
        <ele>1309.6</ele>
        <time>2018-01-18T09:10:13Z</time>
      </trkpt>
      <trkpt lat="45.30207" lon="5.84064">
        <ele>1309.9</ele>
        <time>2018-01-18T09:10:19Z</time>
      </trkpt>
      <trkpt lat="45.30219" lon="5.84094">
        <ele>1311.3</ele>
        <time>2018-01-18T09:10:49Z</time>
      </trkpt>
      <trkpt lat="45.30226" lon="5.84103">
        <ele>1311.8</ele>
        <time>2018-01-18T09:11:01Z</time>
      </trkpt>
      <trkpt lat="45.30237" lon="5.84098">
        <ele>1314.4</ele>
        <time>2018-01-18T09:11:13Z</time>
      </trkpt>
      <trkpt lat="45.30242" lon="5.84086">
        <ele>1317.6</ele>
        <time>2018-01-18T09:11:36Z</time>
      </trkpt>
      <trkpt lat="45.30243" lon="5.84085">
        <ele>1318.1</ele>
        <time>2018-01-18T09:11:42Z</time>
      </trkpt>
      <trkpt lat="45.30251" lon="5.84091">
        <ele>1321.5</ele>
        <time>2018-01-18T09:11:58Z</time>
      </trkpt>
      <trkpt lat="45.30259" lon="5.84087">
        <ele>1320.5</ele>
        <time>2018-01-18T09:12:14Z</time>
      </trkpt>
      <trkpt lat="45.3025" lon="5.84061">
        <ele>1321.6</ele>
        <time>2018-01-18T09:12:50Z</time>
      </trkpt>
      <trkpt lat="45.30253" lon="5.84056">
        <ele>1323.6</ele>
        <time>2018-01-18T09:12:57Z</time>
      </trkpt>
      <trkpt lat="45.30258" lon="5.84053">
        <ele>1326.2</ele>
        <time>2018-01-18T09:13:09Z</time>
      </trkpt>
      <trkpt lat="45.30268" lon="5.84064">
        <ele>1331.2</ele>
        <time>2018-01-18T09:13:26Z</time>
      </trkpt>
      <trkpt lat="45.30276" lon="5.84068">
        <ele>1333.7</ele>
        <time>2018-01-18T09:13:39Z</time>
      </trkpt>
      <trkpt lat="45.30283" lon="5.84066">
        <ele>1336.8</ele>
        <time>2018-01-18T09:13:51Z</time>
      </trkpt>
      <trkpt lat="45.30286" lon="5.84065">
        <ele>1337.7</ele>
        <time>2018-01-18T09:13:56Z</time>
      </trkpt>
      <trkpt lat="45.30288" lon="5.84061">
        <ele>1338.8</ele>
        <time>2018-01-18T09:14:01Z</time>
      </trkpt>
      <trkpt lat="45.30298" lon="5.8406">
        <ele>1343.3</ele>
        <time>2018-01-18T09:14:18Z</time>
      </trkpt>
      <trkpt lat="45.30302" lon="5.84063">
        <ele>1345.4</ele>
        <time>2018-01-18T09:14:24Z</time>
      </trkpt>
      <trkpt lat="45.30306" lon="5.84059">
        <ele>1347.5</ele>
        <time>2018-01-18T09:14:30Z</time>
      </trkpt>
      <trkpt lat="45.30308" lon="5.84055">
        <ele>1349.2</ele>
        <time>2018-01-18T09:14:39Z</time>
      </trkpt>
      <trkpt lat="45.30305" lon="5.84052">
        <ele>1350.4</ele>
        <time>2018-01-18T09:14:57Z</time>
      </trkpt>
      <trkpt lat="45.30307" lon="5.8405">
        <ele>1351.2</ele>
        <time>2018-01-18T09:15:09Z</time>
      </trkpt>
      <trkpt lat="45.3031" lon="5.84048">
        <ele>1352.3</ele>
        <time>2018-01-18T09:15:14Z</time>
      </trkpt>
      <trkpt lat="45.30326" lon="5.84055">
        <ele>1358.4</ele>
        <time>2018-01-18T09:15:41Z</time>
      </trkpt>
      <trkpt lat="45.30338" lon="5.84054">
        <ele>1364.2</ele>
        <time>2018-01-18T09:16:00Z</time>
      </trkpt>
      <trkpt lat="45.3034" lon="5.8405">
        <ele>1365.8</ele>
        <time>2018-01-18T09:16:26Z</time>
      </trkpt>
      <trkpt lat="45.30338" lon="5.84049">
        <ele>1368</ele>
        <time>2018-01-18T09:18:43Z</time>
      </trkpt>
      <trkpt lat="45.30339" lon="5.84048">
        <ele>1368</ele>
        <time>2018-01-18T09:19:53Z</time>
      </trkpt>
      <trkpt lat="45.30351" lon="5.84044">
        <ele>1368.5</ele>
        <time>2018-01-18T09:20:09Z</time>
      </trkpt>
      <trkpt lat="45.30355" lon="5.8404">
        <ele>1368.6</ele>
        <time>2018-01-18T09:20:16Z</time>
      </trkpt>
      <trkpt lat="45.30358" lon="5.84035">
        <ele>1369</ele>
        <time>2018-01-18T09:20:30Z</time>
      </trkpt>
      <trkpt lat="45.30363" lon="5.84039">
        <ele>1369.8</ele>
        <time>2018-01-18T09:20:36Z</time>
      </trkpt>
      <trkpt lat="45.30364" lon="5.84047">
        <ele>1370.5</ele>
        <time>2018-01-18T09:20:42Z</time>
      </trkpt>
      <trkpt lat="45.30369" lon="5.8405">
        <ele>1371.4</ele>
        <time>2018-01-18T09:20:50Z</time>
      </trkpt>
      <trkpt lat="45.3037" lon="5.84051">
        <ele>1371.7</ele>
        <time>2018-01-18T09:20:59Z</time>
      </trkpt>
      <trkpt lat="45.30379" lon="5.84049">
        <ele>1373.8</ele>
        <time>2018-01-18T09:21:11Z</time>
      </trkpt>
      <trkpt lat="45.30384" lon="5.8405">
        <ele>1375.1</ele>
        <time>2018-01-18T09:21:16Z</time>
      </trkpt>
      <trkpt lat="45.30402" lon="5.84057">
        <ele>1378.4</ele>
        <time>2018-01-18T09:21:40Z</time>
      </trkpt>
      <trkpt lat="45.30423" lon="5.84048">
        <ele>1382</ele>
        <time>2018-01-18T09:22:15Z</time>
      </trkpt>
      <trkpt lat="45.3044" lon="5.84032">
        <ele>1384.8</ele>
        <time>2018-01-18T09:22:45Z</time>
      </trkpt>
      <trkpt lat="45.30451" lon="5.84022">
        <ele>1386.5</ele>
        <time>2018-01-18T09:22:57Z</time>
      </trkpt>
      <trkpt lat="45.30462" lon="5.84019">
        <ele>1388</ele>
        <time>2018-01-18T09:23:09Z</time>
      </trkpt>
      <trkpt lat="45.30473" lon="5.84025">
        <ele>1388</ele>
        <time>2018-01-18T09:23:21Z</time>
      </trkpt>
      <trkpt lat="45.30483" lon="5.84032">
        <ele>1388</ele>
        <time>2018-01-18T09:23:33Z</time>
      </trkpt>
      <trkpt lat="45.30514" lon="5.84061">
        <ele>1392.7</ele>
        <time>2018-01-18T09:24:15Z</time>
      </trkpt>
      <trkpt lat="45.30524" lon="5.84062">
        <ele>1397</ele>
        <time>2018-01-18T09:24:27Z</time>
      </trkpt>
      <trkpt lat="45.30528" lon="5.84059">
        <ele>1400</ele>
        <time>2018-01-18T09:24:33Z</time>
      </trkpt>
      <trkpt lat="45.3053" lon="5.84045">
        <ele>1407.9</ele>
        <time>2018-01-18T09:24:45Z</time>
      </trkpt>
      <trkpt lat="45.30528" lon="5.84014">
        <ele>1418.6</ele>
        <time>2018-01-18T09:25:08Z</time>
      </trkpt>
      <trkpt lat="45.30523" lon="5.8398">
        <ele>1425.1</ele>
        <time>2018-01-18T09:25:36Z</time>
      </trkpt>
      <trkpt lat="45.30516" lon="5.83961">
        <ele>1426.4</ele>
        <time>2018-01-18T09:25:54Z</time>
      </trkpt>
      <trkpt lat="45.30499" lon="5.83946">
        <ele>1428</ele>
        <time>2018-01-18T09:26:16Z</time>
      </trkpt>
      <trkpt lat="45.30488" lon="5.83941">
        <ele>1429.4</ele>
        <time>2018-01-18T09:26:27Z</time>
      </trkpt>
      <trkpt lat="45.30481" lon="5.83932">
        <ele>1430.3</ele>
        <time>2018-01-18T09:26:39Z</time>
      </trkpt>
      <trkpt lat="45.30438" lon="5.83866">
        <ele>1436.7</ele>
        <time>2018-01-18T09:27:51Z</time>
      </trkpt>
      <trkpt lat="45.30434" lon="5.83861">
        <ele>1437.2</ele>
        <time>2018-01-18T09:27:57Z</time>
      </trkpt>
      <trkpt lat="45.30417" lon="5.8384">
        <ele>1439.2</ele>
        <time>2018-01-18T09:28:20Z</time>
      </trkpt>
      <trkpt lat="45.30407" lon="5.83831">
        <ele>1440.4</ele>
        <time>2018-01-18T09:28:31Z</time>
      </trkpt>
      <trkpt lat="45.30398" lon="5.83811">
        <ele>1441.8</ele>
        <time>2018-01-18T09:28:49Z</time>
      </trkpt>
      <trkpt lat="45.30387" lon="5.83795">
        <ele>1443.4</ele>
        <time>2018-01-18T09:29:06Z</time>
      </trkpt>
      <trkpt lat="45.3037" lon="5.83789">
        <ele>1445.3</ele>
        <time>2018-01-18T09:29:24Z</time>
      </trkpt>
      <trkpt lat="45.30346" lon="5.83784">
        <ele>1447.8</ele>
        <time>2018-01-18T09:29:46Z</time>
      </trkpt>
      <trkpt lat="45.30324" lon="5.83773">
        <ele>1449.8</ele>
        <time>2018-01-18T09:30:11Z</time>
      </trkpt>
      <trkpt lat="45.30299" lon="5.83755">
        <ele>1452.4</ele>
        <time>2018-01-18T09:30:40Z</time>
      </trkpt>
      <trkpt lat="45.30292" lon="5.83745">
        <ele>1453.5</ele>
        <time>2018-01-18T09:30:51Z</time>
      </trkpt>
      <trkpt lat="45.30283" lon="5.83728">
        <ele>1454.9</ele>
        <time>2018-01-18T09:31:09Z</time>
      </trkpt>
      <trkpt lat="45.30279" lon="5.83723">
        <ele>1455.5</ele>
        <time>2018-01-18T09:31:15Z</time>
      </trkpt>
      <trkpt lat="45.30258" lon="5.83703">
        <ele>1458.1</ele>
        <time>2018-01-18T09:31:44Z</time>
      </trkpt>
      <trkpt lat="45.30248" lon="5.83695">
        <ele>1459.2</ele>
        <time>2018-01-18T09:31:56Z</time>
      </trkpt>
      <trkpt lat="45.30248" lon="5.83686">
        <ele>1460</ele>
        <time>2018-01-18T09:32:58Z</time>
      </trkpt>
      <trkpt lat="45.30249" lon="5.83679">
        <ele>1459.8</ele>
        <time>2018-01-18T09:33:09Z</time>
      </trkpt>
      <trkpt lat="45.30252" lon="5.83671">
        <ele>1458.7</ele>
        <time>2018-01-18T09:33:14Z</time>
      </trkpt>
      <trkpt lat="45.30267" lon="5.83645">
        <ele>1453.3</ele>
        <time>2018-01-18T09:33:35Z</time>
      </trkpt>
      <trkpt lat="45.30278" lon="5.83623">
        <ele>1443.8</ele>
        <time>2018-01-18T09:33:52Z</time>
      </trkpt>
      <trkpt lat="45.30281" lon="5.83609">
        <ele>1439.6</ele>
        <time>2018-01-18T09:34:02Z</time>
      </trkpt>
      <trkpt lat="45.30275" lon="5.83608">
        <ele>1436</ele>
        <time>2018-01-18T09:34:08Z</time>
      </trkpt>
      <trkpt lat="45.3027" lon="5.83611">
        <ele>1436.4</ele>
        <time>2018-01-18T09:34:14Z</time>
      </trkpt>
      <trkpt lat="45.30261" lon="5.83615">
        <ele>1437.2</ele>
        <time>2018-01-18T09:34:25Z</time>
      </trkpt>
      <trkpt lat="45.30256" lon="5.83613">
        <ele>1437.4</ele>
        <time>2018-01-18T09:34:30Z</time>
      </trkpt>
      <trkpt lat="45.30253" lon="5.83613">
        <ele>1437.5</ele>
        <time>2018-01-18T09:34:43Z</time>
      </trkpt>
      <trkpt lat="45.30252" lon="5.83613">
        <ele>1437.5</ele>
        <time>2018-01-18T09:34:57Z</time>
      </trkpt>
      <trkpt lat="45.30249" lon="5.83606">
        <ele>1437.7</ele>
        <time>2018-01-18T09:35:02Z</time>
      </trkpt>
      <trkpt lat="45.30228" lon="5.83575">
        <ele>1437.3</ele>
        <time>2018-01-18T09:35:12Z</time>
      </trkpt>
      <trkpt lat="45.30214" lon="5.83562">
        <ele>1436.8</ele>
        <time>2018-01-18T09:35:17Z</time>
      </trkpt>
      <trkpt lat="45.30188" lon="5.83539">
        <ele>1435.7</ele>
        <time>2018-01-18T09:35:32Z</time>
      </trkpt>
      <trkpt lat="45.30182" lon="5.83527">
        <ele>1435.3</ele>
        <time>2018-01-18T09:35:37Z</time>
      </trkpt>
      <trkpt lat="45.30169" lon="5.83494">
        <ele>1434.7</ele>
        <time>2018-01-18T09:35:48Z</time>
      </trkpt>
      <trkpt lat="45.30166" lon="5.83493">
        <ele>1434.7</ele>
        <time>2018-01-18T09:36:00Z</time>
      </trkpt>
      <trkpt lat="45.30164" lon="5.83491">
        <ele>1434.6</ele>
        <time>2018-01-18T09:36:07Z</time>
      </trkpt>
      <trkpt lat="45.30156" lon="5.83487">
        <ele>1434.5</ele>
        <time>2018-01-18T09:36:19Z</time>
      </trkpt>
      <trkpt lat="45.30139" lon="5.83477">
        <ele>1439</ele>
        <time>2018-01-18T09:36:42Z</time>
      </trkpt>
      <trkpt lat="45.30116" lon="5.83459">
        <ele>1440.8</ele>
        <time>2018-01-18T09:37:20Z</time>
      </trkpt>
      <trkpt lat="45.30114" lon="5.83456">
        <ele>1441.6</ele>
        <time>2018-01-18T09:37:25Z</time>
      </trkpt>
      <trkpt lat="45.30084" lon="5.83441">
        <ele>1447.3</ele>
        <time>2018-01-18T09:38:16Z</time>
      </trkpt>
      <trkpt lat="45.30067" lon="5.83428">
        <ele>1452.7</ele>
        <time>2018-01-18T09:38:51Z</time>
      </trkpt>
      <trkpt lat="45.30061" lon="5.8343">
        <ele>1454.9</ele>
        <time>2018-01-18T09:39:04Z</time>
      </trkpt>
      <trkpt lat="45.30057" lon="5.83432">
        <ele>1458.1</ele>
        <time>2018-01-18T09:39:14Z</time>
      </trkpt>
      <trkpt lat="45.30053" lon="5.83426">
        <ele>1458.1</ele>
        <time>2018-01-18T09:39:28Z</time>
      </trkpt>
      <trkpt lat="45.30057" lon="5.83411">
        <ele>1454.9</ele>
        <time>2018-01-18T09:40:13Z</time>
      </trkpt>
      <trkpt lat="45.30062" lon="5.83398">
        <ele>1451</ele>
        <time>2018-01-18T09:40:30Z</time>
      </trkpt>
      <trkpt lat="45.30061" lon="5.83395">
        <ele>1451.9</ele>
        <time>2018-01-18T09:40:35Z</time>
      </trkpt>
      <trkpt lat="45.3005" lon="5.83389">
        <ele>1455.2</ele>
        <time>2018-01-18T09:40:53Z</time>
      </trkpt>
      <trkpt lat="45.30046" lon="5.83387">
        <ele>1456.8</ele>
        <time>2018-01-18T09:40:59Z</time>
      </trkpt>
      <trkpt lat="45.30032" lon="5.83385">
        <ele>1463.4</ele>
        <time>2018-01-18T09:41:23Z</time>
      </trkpt>
      <trkpt lat="45.30025" lon="5.83383">
        <ele>1467</ele>
        <time>2018-01-18T09:41:34Z</time>
      </trkpt>
      <trkpt lat="45.30019" lon="5.83368">
        <ele>1468.7</ele>
        <time>2018-01-18T09:41:52Z</time>
      </trkpt>
      <trkpt lat="45.30018" lon="5.83369">
        <ele>1468.6</ele>
        <time>2018-01-18T09:42:00Z</time>
      </trkpt>
      <trkpt lat="45.30014" lon="5.83377">
        <ele>1467.8</ele>
        <time>2018-01-18T09:42:11Z</time>
      </trkpt>
      <trkpt lat="45.30007" lon="5.83377">
        <ele>1467.8</ele>
        <time>2018-01-18T09:42:24Z</time>
      </trkpt>
      <trkpt lat="45.30003" lon="5.83366">
        <ele>1467.9</ele>
        <time>2018-01-18T09:42:40Z</time>
      </trkpt>
      <trkpt lat="45.3001" lon="5.83355">
        <ele>1470.7</ele>
        <time>2018-01-18T09:43:43Z</time>
      </trkpt>
      <trkpt lat="45.3001" lon="5.83353">
        <ele>1471</ele>
        <time>2018-01-18T09:43:52Z</time>
      </trkpt>
      <trkpt lat="45.30004" lon="5.83345">
        <ele>1472.6</ele>
        <time>2018-01-18T09:44:04Z</time>
      </trkpt>
      <trkpt lat="45.29994" lon="5.83342">
        <ele>1475.1</ele>
        <time>2018-01-18T09:44:16Z</time>
      </trkpt>
      <trkpt lat="45.29964" lon="5.8333">
        <ele>1483.4</ele>
        <time>2018-01-18T09:44:43Z</time>
      </trkpt>
      <trkpt lat="45.29935" lon="5.83324">
        <ele>1493.1</ele>
        <time>2018-01-18T09:45:09Z</time>
      </trkpt>
      <trkpt lat="45.29926" lon="5.83325">
        <ele>1496.7</ele>
        <time>2018-01-18T09:45:22Z</time>
      </trkpt>
      <trkpt lat="45.29899" lon="5.83329">
        <ele>1506.3</ele>
        <time>2018-01-18T09:46:03Z</time>
      </trkpt>
      <trkpt lat="45.29889" lon="5.83335">
        <ele>1510</ele>
        <time>2018-01-18T09:46:24Z</time>
      </trkpt>
      <trkpt lat="45.29883" lon="5.83329">
        <ele>1512.8</ele>
        <time>2018-01-18T09:46:36Z</time>
      </trkpt>
      <trkpt lat="45.29884" lon="5.83313">
        <ele>1515.9</ele>
        <time>2018-01-18T09:46:54Z</time>
      </trkpt>
      <trkpt lat="45.2988" lon="5.83301">
        <ele>1516.3</ele>
        <time>2018-01-18T09:47:10Z</time>
      </trkpt>
      <trkpt lat="45.29879" lon="5.83297">
        <ele>1516.5</ele>
        <time>2018-01-18T09:47:16Z</time>
      </trkpt>
      <trkpt lat="45.29873" lon="5.83298">
        <ele>1517.1</ele>
        <time>2018-01-18T09:47:26Z</time>
      </trkpt>
      <trkpt lat="45.2986" lon="5.83296">
        <ele>1517</ele>
        <time>2018-01-18T09:47:45Z</time>
      </trkpt>
      <trkpt lat="45.29848" lon="5.83284">
        <ele>1517.4</ele>
        <time>2018-01-18T09:48:10Z</time>
      </trkpt>
      <trkpt lat="45.29843" lon="5.83269">
        <ele>1518</ele>
        <time>2018-01-18T09:48:27Z</time>
      </trkpt>
      <trkpt lat="45.29843" lon="5.83242">
        <ele>1519.6</ele>
        <time>2018-01-18T09:48:51Z</time>
      </trkpt>
      <trkpt lat="45.29845" lon="5.83222">
        <ele>1521.2</ele>
        <time>2018-01-18T09:49:09Z</time>
      </trkpt>
      <trkpt lat="45.29848" lon="5.83207">
        <ele>1523.4</ele>
        <time>2018-01-18T09:49:27Z</time>
      </trkpt>
      <trkpt lat="45.29862" lon="5.83159">
        <ele>1535.1</ele>
        <time>2018-01-18T09:50:20Z</time>
      </trkpt>
      <trkpt lat="45.29865" lon="5.83151">
        <ele>1536.5</ele>
        <time>2018-01-18T09:50:31Z</time>
      </trkpt>
      <trkpt lat="45.29868" lon="5.83136">
        <ele>1539.7</ele>
        <time>2018-01-18T09:50:49Z</time>
      </trkpt>
      <trkpt lat="45.29873" lon="5.83107">
        <ele>1545.5</ele>
        <time>2018-01-18T09:51:29Z</time>
      </trkpt>
      <trkpt lat="45.29872" lon="5.83096">
        <ele>1546</ele>
        <time>2018-01-18T09:51:41Z</time>
      </trkpt>
      <trkpt lat="45.29863" lon="5.83072">
        <ele>1562</ele>
        <time>2018-01-18T09:52:23Z</time>
      </trkpt>
      <trkpt lat="45.29862" lon="5.83068">
        <ele>1562.7</ele>
        <time>2018-01-18T09:52:30Z</time>
      </trkpt>
      <trkpt lat="45.29857" lon="5.83066">
        <ele>1564</ele>
        <time>2018-01-18T09:52:46Z</time>
      </trkpt>
      <trkpt lat="45.29851" lon="5.83069">
        <ele>1565.9</ele>
        <time>2018-01-18T09:53:02Z</time>
      </trkpt>
      <trkpt lat="45.29852" lon="5.83062">
        <ele>1567.9</ele>
        <time>2018-01-18T09:53:14Z</time>
      </trkpt>
      <trkpt lat="45.29841" lon="5.83061">
        <ele>1571.9</ele>
        <time>2018-01-18T09:53:44Z</time>
      </trkpt>
      <trkpt lat="45.29847" lon="5.83044">
        <ele>1576.2</ele>
        <time>2018-01-18T09:54:30Z</time>
      </trkpt>
      <trkpt lat="45.2985" lon="5.83046">
        <ele>1577</ele>
        <time>2018-01-18T09:54:44Z</time>
      </trkpt>
      <trkpt lat="45.2985" lon="5.83045">
        <ele>1577.1</ele>
        <time>2018-01-18T09:54:59Z</time>
      </trkpt>
      <trkpt lat="45.2985" lon="5.83035">
        <ele>1578.6</ele>
        <time>2018-01-18T09:55:10Z</time>
      </trkpt>
      <trkpt lat="45.29853" lon="5.83041">
        <ele>1579.7</ele>
        <time>2018-01-18T09:55:33Z</time>
      </trkpt>
      <trkpt lat="45.29854" lon="5.8304">
        <ele>1580.1</ele>
        <time>2018-01-18T09:55:42Z</time>
      </trkpt>
      <trkpt lat="45.29849" lon="5.83041">
        <ele>1581.7</ele>
        <time>2018-01-18T09:56:19Z</time>
      </trkpt>
      <trkpt lat="45.29859" lon="5.83044">
        <ele>1584.9</ele>
        <time>2018-01-18T09:56:59Z</time>
      </trkpt>
      <trkpt lat="45.29866" lon="5.83043">
        <ele>1586.9</ele>
        <time>2018-01-18T09:58:06Z</time>
      </trkpt>
      <trkpt lat="45.29863" lon="5.83045">
        <ele>1587.6</ele>
        <time>2018-01-18T09:58:24Z</time>
      </trkpt>
      <trkpt lat="45.29866" lon="5.83044">
        <ele>1588.3</ele>
        <time>2018-01-18T09:58:32Z</time>
      </trkpt>
      <trkpt lat="45.29864" lon="5.83041">
        <ele>1589.1</ele>
        <time>2018-01-18T09:58:52Z</time>
      </trkpt>
      <trkpt lat="45.29854" lon="5.83029">
        <ele>1593.7</ele>
        <time>2018-01-18T09:59:26Z</time>
      </trkpt>
      <trkpt lat="45.29854" lon="5.83028">
        <ele>1593.8</ele>
        <time>2018-01-18T09:59:36Z</time>
      </trkpt>
      <trkpt lat="45.29856" lon="5.83027">
        <ele>1594.4</ele>
        <time>2018-01-18T09:59:44Z</time>
      </trkpt>
      <trkpt lat="45.29852" lon="5.83023">
        <ele>1596.2</ele>
        <time>2018-01-18T10:00:01Z</time>
      </trkpt>
      <trkpt lat="45.29853" lon="5.83021">
        <ele>1596.7</ele>
        <time>2018-01-18T10:00:24Z</time>
      </trkpt>
      <trkpt lat="45.29851" lon="5.83018">
        <ele>1597.6</ele>
        <time>2018-01-18T10:00:38Z</time>
      </trkpt>
      <trkpt lat="45.29854" lon="5.83016">
        <ele>1598.7</ele>
        <time>2018-01-18T10:00:46Z</time>
      </trkpt>
      <trkpt lat="45.29853" lon="5.83018">
        <ele>1599.3</ele>
        <time>2018-01-18T10:01:12Z</time>
      </trkpt>
      <trkpt lat="45.29849" lon="5.83014">
        <ele>1600.8</ele>
        <time>2018-01-18T10:01:20Z</time>
      </trkpt>
      <trkpt lat="45.29847" lon="5.83014">
        <ele>1601.2</ele>
        <time>2018-01-18T10:01:36Z</time>
      </trkpt>
      <trkpt lat="45.29835" lon="5.83011">
        <ele>1605</ele>
        <time>2018-01-18T10:02:00Z</time>
      </trkpt>
      <trkpt lat="45.29833" lon="5.8301">
        <ele>1605.7</ele>
        <time>2018-01-18T10:02:06Z</time>
      </trkpt>
      <trkpt lat="45.29813" lon="5.83008">
        <ele>1610.9</ele>
        <time>2018-01-18T10:02:42Z</time>
      </trkpt>
      <trkpt lat="45.29813" lon="5.83007">
        <ele>1610.6</ele>
        <time>2018-01-18T10:02:47Z</time>
      </trkpt>
      <trkpt lat="45.29838" lon="5.82972">
        <ele>1619.1</ele>
        <time>2018-01-18T10:03:54Z</time>
      </trkpt>
      <trkpt lat="45.29837" lon="5.82973">
        <ele>1619.3</ele>
        <time>2018-01-18T10:04:08Z</time>
      </trkpt>
      <trkpt lat="45.29834" lon="5.82972">
        <ele>1619.6</ele>
        <time>2018-01-18T10:04:14Z</time>
      </trkpt>
      <trkpt lat="45.2983" lon="5.82975">
        <ele>1618.4</ele>
        <time>2018-01-18T10:05:14Z</time>
      </trkpt>
      <trkpt lat="45.29833" lon="5.82971">
        <ele>1619.1</ele>
        <time>2018-01-18T10:06:19Z</time>
      </trkpt>
      <trkpt lat="45.29835" lon="5.82967">
        <ele>1619.8</ele>
        <time>2018-01-18T10:06:25Z</time>
      </trkpt>
      <trkpt lat="45.29832" lon="5.82972">
        <ele>1618.6</ele>
        <time>2018-01-18T10:07:31Z</time>
      </trkpt>
      <trkpt lat="45.2983" lon="5.8297">
        <ele>1620.5</ele>
        <time>2018-01-18T10:08:01Z</time>
      </trkpt>
      <trkpt lat="45.29824" lon="5.82966">
        <ele>1623.2</ele>
        <time>2018-01-18T10:08:12Z</time>
      </trkpt>
      <trkpt lat="45.29823" lon="5.82964">
        <ele>1622.9</ele>
        <time>2018-01-18T10:08:18Z</time>
      </trkpt>
      <trkpt lat="45.29827" lon="5.82962">
        <ele>1623.6</ele>
        <time>2018-01-18T10:08:34Z</time>
      </trkpt>
      <trkpt lat="45.29833" lon="5.82959">
        <ele>1621.9</ele>
        <time>2018-01-18T10:08:45Z</time>
      </trkpt>
      <trkpt lat="45.29834" lon="5.82955">
        <ele>1623.2</ele>
        <time>2018-01-18T10:09:13Z</time>
      </trkpt>
      <trkpt lat="45.29833" lon="5.82954">
        <ele>1623</ele>
        <time>2018-01-18T10:09:44Z</time>
      </trkpt>
      <trkpt lat="45.29831" lon="5.82953">
        <ele>1625.1</ele>
        <time>2018-01-18T10:10:11Z</time>
      </trkpt>
      <trkpt lat="45.2983" lon="5.82957">
        <ele>1623.1</ele>
        <time>2018-01-18T10:10:24Z</time>
      </trkpt>
      <trkpt lat="45.29831" lon="5.82958">
        <ele>1621.3</ele>
        <time>2018-01-18T10:10:53Z</time>
      </trkpt>
      <trkpt lat="45.29844" lon="5.82953">
        <ele>1621.6</ele>
        <time>2018-01-18T10:11:19Z</time>
      </trkpt>
      <trkpt lat="45.29845" lon="5.82954">
        <ele>1619.3</ele>
        <time>2018-01-18T10:11:25Z</time>
      </trkpt>
      <trkpt lat="45.29855" lon="5.82957">
        <ele>1617.4</ele>
        <time>2018-01-18T10:11:42Z</time>
      </trkpt>
      <trkpt lat="45.29855" lon="5.82961">
        <ele>1615.7</ele>
        <time>2018-01-18T10:11:50Z</time>
      </trkpt>
      <trkpt lat="45.29848" lon="5.82978">
        <ele>1610.5</ele>
        <time>2018-01-18T10:12:07Z</time>
      </trkpt>
      <trkpt lat="45.29862" lon="5.82967">
        <ele>1611.2</ele>
        <time>2018-01-18T10:12:27Z</time>
      </trkpt>
      <trkpt lat="45.2987" lon="5.82962">
        <ele>1610.6</ele>
        <time>2018-01-18T10:12:43Z</time>
      </trkpt>
      <trkpt lat="45.29869" lon="5.82966">
        <ele>1610.3</ele>
        <time>2018-01-18T10:12:49Z</time>
      </trkpt>
      <trkpt lat="45.29869" lon="5.82973">
        <ele>1610.3</ele>
        <time>2018-01-18T10:13:03Z</time>
      </trkpt>
      <trkpt lat="45.29875" lon="5.8297">
        <ele>1610.2</ele>
        <time>2018-01-18T10:13:14Z</time>
      </trkpt>
      <trkpt lat="45.29885" lon="5.8297">
        <ele>1613.4</ele>
        <time>2018-01-18T10:13:27Z</time>
      </trkpt>
      <trkpt lat="45.29895" lon="5.82965">
        <ele>1617.2</ele>
        <time>2018-01-18T10:16:33Z</time>
      </trkpt>
      <trkpt lat="45.29899" lon="5.82962">
        <ele>1618.4</ele>
        <time>2018-01-18T10:16:53Z</time>
      </trkpt>
      <trkpt lat="45.29896" lon="5.82961">
        <ele>1619.2</ele>
        <time>2018-01-18T10:17:18Z</time>
      </trkpt>
      <trkpt lat="45.29899" lon="5.82957">
        <ele>1619.6</ele>
        <time>2018-01-18T10:17:34Z</time>
      </trkpt>
      <trkpt lat="45.29897" lon="5.82957">
        <ele>1619.7</ele>
        <time>2018-01-18T10:17:54Z</time>
      </trkpt>
      <trkpt lat="45.29905" lon="5.82948">
        <ele>1622</ele>
        <time>2018-01-18T10:18:29Z</time>
      </trkpt>
      <trkpt lat="45.29907" lon="5.82946">
        <ele>1622.6</ele>
        <time>2018-01-18T10:18:45Z</time>
      </trkpt>
      <trkpt lat="45.29907" lon="5.82944">
        <ele>1623</ele>
        <time>2018-01-18T10:18:58Z</time>
      </trkpt>
      <trkpt lat="45.29907" lon="5.8294">
        <ele>1623.2</ele>
        <time>2018-01-18T10:19:04Z</time>
      </trkpt>
      <trkpt lat="45.29909" lon="5.82939">
        <ele>1623.5</ele>
        <time>2018-01-18T10:19:27Z</time>
      </trkpt>
      <trkpt lat="45.2991" lon="5.82935">
        <ele>1623.8</ele>
        <time>2018-01-18T10:19:36Z</time>
      </trkpt>
      <trkpt lat="45.29909" lon="5.82933">
        <ele>1624.2</ele>
        <time>2018-01-18T10:19:48Z</time>
      </trkpt>
      <trkpt lat="45.29908" lon="5.82931">
        <ele>1624.7</ele>
        <time>2018-01-18T10:20:10Z</time>
      </trkpt>
      <trkpt lat="45.29907" lon="5.82923">
        <ele>1626.2</ele>
        <time>2018-01-18T10:20:26Z</time>
      </trkpt>
      <trkpt lat="45.29901" lon="5.82924">
        <ele>1628.5</ele>
        <time>2018-01-18T10:20:56Z</time>
      </trkpt>
      <trkpt lat="45.29901" lon="5.82921">
        <ele>1629.3</ele>
        <time>2018-01-18T10:21:04Z</time>
      </trkpt>
      <trkpt lat="45.29898" lon="5.82917">
        <ele>1630.6</ele>
        <time>2018-01-18T10:21:33Z</time>
      </trkpt>
      <trkpt lat="45.29894" lon="5.82906">
        <ele>1634.6</ele>
        <time>2018-01-18T10:21:59Z</time>
      </trkpt>
      <trkpt lat="45.29889" lon="5.82896">
        <ele>1638.5</ele>
        <time>2018-01-18T10:22:17Z</time>
      </trkpt>
      <trkpt lat="45.29887" lon="5.82891">
        <ele>1639.6</ele>
        <time>2018-01-18T10:22:24Z</time>
      </trkpt>
      <trkpt lat="45.29883" lon="5.82891">
        <ele>1641.2</ele>
        <time>2018-01-18T10:22:39Z</time>
      </trkpt>
      <trkpt lat="45.2988" lon="5.82901">
        <ele>1643</ele>
        <time>2018-01-18T10:22:54Z</time>
      </trkpt>
      <trkpt lat="45.29875" lon="5.82908">
        <ele>1643</ele>
        <time>2018-01-18T10:23:06Z</time>
      </trkpt>
      <trkpt lat="45.29872" lon="5.82912">
        <ele>1644.2</ele>
        <time>2018-01-18T10:23:17Z</time>
      </trkpt>
      <trkpt lat="45.29868" lon="5.82901">
        <ele>1645.4</ele>
        <time>2018-01-18T10:23:35Z</time>
      </trkpt>
      <trkpt lat="45.29866" lon="5.829">
        <ele>1645.9</ele>
        <time>2018-01-18T10:23:47Z</time>
      </trkpt>
      <trkpt lat="45.29863" lon="5.82905">
        <ele>1646.7</ele>
        <time>2018-01-18T10:23:54Z</time>
      </trkpt>
      <trkpt lat="45.29861" lon="5.82903">
        <ele>1646.8</ele>
        <time>2018-01-18T10:24:00Z</time>
      </trkpt>
      <trkpt lat="45.29861" lon="5.82885">
        <ele>1648.8</ele>
        <time>2018-01-18T10:24:17Z</time>
      </trkpt>
      <trkpt lat="45.29856" lon="5.82866">
        <ele>1652.7</ele>
        <time>2018-01-18T10:24:40Z</time>
      </trkpt>
      <trkpt lat="45.2985" lon="5.8287">
        <ele>1654.1</ele>
        <time>2018-01-18T10:25:02Z</time>
      </trkpt>
      <trkpt lat="45.29847" lon="5.8287">
        <ele>1654.4</ele>
        <time>2018-01-18T10:25:10Z</time>
      </trkpt>
      <trkpt lat="45.2984" lon="5.82861">
        <ele>1656.3</ele>
        <time>2018-01-18T10:25:28Z</time>
      </trkpt>
      <trkpt lat="45.29838" lon="5.82859">
        <ele>1657</ele>
        <time>2018-01-18T10:25:41Z</time>
      </trkpt>
      <trkpt lat="45.29837" lon="5.82861">
        <ele>1657.5</ele>
        <time>2018-01-18T10:25:58Z</time>
      </trkpt>
      <trkpt lat="45.29839" lon="5.8286">
        <ele>1657.9</ele>
        <time>2018-01-18T10:26:19Z</time>
      </trkpt>
      <trkpt lat="45.29836" lon="5.82861">
        <ele>1658.8</ele>
        <time>2018-01-18T10:26:44Z</time>
      </trkpt>
      <trkpt lat="45.29831" lon="5.82851">
        <ele>1661.1</ele>
        <time>2018-01-18T10:27:01Z</time>
      </trkpt>
      <trkpt lat="45.29828" lon="5.82848">
        <ele>1662</ele>
        <time>2018-01-18T10:27:09Z</time>
      </trkpt>
      <trkpt lat="45.29821" lon="5.82841">
        <ele>1664.8</ele>
        <time>2018-01-18T10:27:30Z</time>
      </trkpt>
      <trkpt lat="45.29818" lon="5.82854">
        <ele>1667.9</ele>
        <time>2018-01-18T10:27:48Z</time>
      </trkpt>
      <trkpt lat="45.29816" lon="5.82853">
        <ele>1668.6</ele>
        <time>2018-01-18T10:27:55Z</time>
      </trkpt>
      <trkpt lat="45.29809" lon="5.82843">
        <ele>1672.9</ele>
        <time>2018-01-18T10:28:12Z</time>
      </trkpt>
      <trkpt lat="45.29806" lon="5.82836">
        <ele>1676.1</ele>
        <time>2018-01-18T10:28:23Z</time>
      </trkpt>
      <trkpt lat="45.29808" lon="5.82834">
        <ele>1677.1</ele>
        <time>2018-01-18T10:28:28Z</time>
      </trkpt>
      <trkpt lat="45.29803" lon="5.82842">
        <ele>1677.6</ele>
        <time>2018-01-18T10:28:46Z</time>
      </trkpt>
      <trkpt lat="45.29802" lon="5.82842">
        <ele>1677.7</ele>
        <time>2018-01-18T10:28:57Z</time>
      </trkpt>
      <trkpt lat="45.298" lon="5.82834">
        <ele>1678.1</ele>
        <time>2018-01-18T10:29:07Z</time>
      </trkpt>
      <trkpt lat="45.29799" lon="5.82831">
        <ele>1678.6</ele>
        <time>2018-01-18T10:29:13Z</time>
      </trkpt>
      <trkpt lat="45.29797" lon="5.8283">
        <ele>1678.9</ele>
        <time>2018-01-18T10:29:21Z</time>
      </trkpt>
      <trkpt lat="45.29794" lon="5.82829">
        <ele>1679.5</ele>
        <time>2018-01-18T10:29:33Z</time>
      </trkpt>
      <trkpt lat="45.29792" lon="5.8282">
        <ele>1681.2</ele>
        <time>2018-01-18T10:29:46Z</time>
      </trkpt>
      <trkpt lat="45.29793" lon="5.82821">
        <ele>1681.6</ele>
        <time>2018-01-18T10:29:54Z</time>
      </trkpt>
      <trkpt lat="45.29786" lon="5.82835">
        <ele>1684.2</ele>
        <time>2018-01-18T10:30:19Z</time>
      </trkpt>
      <trkpt lat="45.29784" lon="5.82837">
        <ele>1684.4</ele>
        <time>2018-01-18T10:30:26Z</time>
      </trkpt>
      <trkpt lat="45.29783" lon="5.82825">
        <ele>1682.9</ele>
        <time>2018-01-18T10:30:45Z</time>
      </trkpt>
      <trkpt lat="45.29778" lon="5.8282">
        <ele>1683.2</ele>
        <time>2018-01-18T10:30:59Z</time>
      </trkpt>
      <trkpt lat="45.29776" lon="5.82833">
        <ele>1684</ele>
        <time>2018-01-18T10:31:21Z</time>
      </trkpt>
      <trkpt lat="45.2977" lon="5.82825">
        <ele>1687</ele>
        <time>2018-01-18T10:31:40Z</time>
      </trkpt>
      <trkpt lat="45.29761" lon="5.82829">
        <ele>1690.1</ele>
        <time>2018-01-18T10:32:04Z</time>
      </trkpt>
      <trkpt lat="45.29757" lon="5.82822">
        <ele>1691.8</ele>
        <time>2018-01-18T10:32:17Z</time>
      </trkpt>
      <trkpt lat="45.29747" lon="5.8281">
        <ele>1695.7</ele>
        <time>2018-01-18T10:32:45Z</time>
      </trkpt>
      <trkpt lat="45.29747" lon="5.82812">
        <ele>1697</ele>
        <time>2018-01-18T10:32:52Z</time>
      </trkpt>
      <trkpt lat="45.29746" lon="5.82817">
        <ele>1697.4</ele>
        <time>2018-01-18T10:33:08Z</time>
      </trkpt>
      <trkpt lat="45.29742" lon="5.82818">
        <ele>1697.8</ele>
        <time>2018-01-18T10:33:27Z</time>
      </trkpt>
      <trkpt lat="45.2974" lon="5.82812">
        <ele>1698.2</ele>
        <time>2018-01-18T10:33:42Z</time>
      </trkpt>
      <trkpt lat="45.29739" lon="5.82811">
        <ele>1698.4</ele>
        <time>2018-01-18T10:33:49Z</time>
      </trkpt>
      <trkpt lat="45.29736" lon="5.82816">
        <ele>1698.8</ele>
        <time>2018-01-18T10:34:09Z</time>
      </trkpt>
      <trkpt lat="45.29726" lon="5.828">
        <ele>1700.4</ele>
        <time>2018-01-18T10:34:33Z</time>
      </trkpt>
      <trkpt lat="45.29721" lon="5.82795">
        <ele>1701.2</ele>
        <time>2018-01-18T10:34:45Z</time>
      </trkpt>
      <trkpt lat="45.29718" lon="5.82794">
        <ele>1701.5</ele>
        <time>2018-01-18T10:34:50Z</time>
      </trkpt>
      <trkpt lat="45.29707" lon="5.82795">
        <ele>1702.2</ele>
        <time>2018-01-18T10:35:09Z</time>
      </trkpt>
      <trkpt lat="45.29699" lon="5.82801">
        <ele>1701.8</ele>
        <time>2018-01-18T10:35:21Z</time>
      </trkpt>
      <trkpt lat="45.29695" lon="5.82806">
        <ele>1701.4</ele>
        <time>2018-01-18T10:35:27Z</time>
      </trkpt>
      <trkpt lat="45.29684" lon="5.82818">
        <ele>1700.2</ele>
        <time>2018-01-18T10:35:50Z</time>
      </trkpt>
      <trkpt lat="45.29681" lon="5.8282">
        <ele>1699.9</ele>
        <time>2018-01-18T10:36:02Z</time>
      </trkpt>
      <trkpt lat="45.29679" lon="5.82823">
        <ele>1699.6</ele>
        <time>2018-01-18T10:36:18Z</time>
      </trkpt>
      <trkpt lat="45.29672" lon="5.82829">
        <ele>1697.5</ele>
        <time>2018-01-18T10:36:31Z</time>
      </trkpt>
      <trkpt lat="45.29669" lon="5.82832">
        <ele>1696.6</ele>
        <time>2018-01-18T10:36:37Z</time>
      </trkpt>
      <trkpt lat="45.29669" lon="5.82833">
        <ele>1696.3</ele>
        <time>2018-01-18T10:37:53Z</time>
      </trkpt>
      <trkpt lat="45.29669" lon="5.82835">
        <ele>1696</ele>
        <time>2018-01-18T10:38:52Z</time>
      </trkpt>
      <trkpt lat="45.2967" lon="5.8283">
        <ele>1695</ele>
        <time>2018-01-18T10:40:38Z</time>
      </trkpt>
      <trkpt lat="45.2967" lon="5.8284">
        <ele>1692.7</ele>
        <time>2018-01-18T10:42:36Z</time>
      </trkpt>
      <trkpt lat="45.2967" lon="5.82834">
        <ele>1691.3</ele>
        <time>2018-01-18T10:46:40Z</time>
      </trkpt>
      <trkpt lat="45.29669" lon="5.82839">
        <ele>1690.1</ele>
        <time>2018-01-18T10:47:00Z</time>
      </trkpt>
      <trkpt lat="45.29668" lon="5.82835">
        <ele>1688.3</ele>
        <time>2018-01-18T10:49:39Z</time>
      </trkpt>
      <trkpt lat="45.29669" lon="5.82834">
        <ele>1687.5</ele>
        <time>2018-01-18T10:51:57Z</time>
      </trkpt>
      <trkpt lat="45.29689" lon="5.82805">
        <ele>1703.9</ele>
        <time>2018-01-18T10:52:07Z</time>
      </trkpt>
      <trkpt lat="45.29709" lon="5.82757">
        <ele>1705.2</ele>
        <time>2018-01-18T10:52:22Z</time>
      </trkpt>
      <trkpt lat="45.29708" lon="5.82735">
        <ele>1702.6</ele>
        <time>2018-01-18T10:52:50Z</time>
      </trkpt>
      <trkpt lat="45.29707" lon="5.82732">
        <ele>1702</ele>
        <time>2018-01-18T10:54:02Z</time>
      </trkpt>
      <trkpt lat="45.29719" lon="5.8273">
        <ele>1698.4</ele>
        <time>2018-01-18T10:54:07Z</time>
      </trkpt>
      <trkpt lat="45.29719" lon="5.82726">
        <ele>1697</ele>
        <time>2018-01-18T10:54:12Z</time>
      </trkpt>
      <trkpt lat="45.2972" lon="5.82727">
        <ele>1697.2</ele>
        <time>2018-01-18T10:54:51Z</time>
      </trkpt>
      <trkpt lat="45.29723" lon="5.82711">
        <ele>1692.2</ele>
        <time>2018-01-18T10:54:56Z</time>
      </trkpt>
      <trkpt lat="45.29724" lon="5.82684">
        <ele>1684.1</ele>
        <time>2018-01-18T10:55:01Z</time>
      </trkpt>
      <trkpt lat="45.29721" lon="5.82671">
        <ele>1680</ele>
        <time>2018-01-18T10:55:06Z</time>
      </trkpt>
      <trkpt lat="45.29721" lon="5.82668">
        <ele>1677.9</ele>
        <time>2018-01-18T10:55:16Z</time>
      </trkpt>
      <trkpt lat="45.2971" lon="5.82653">
        <ele>1673</ele>
        <time>2018-01-18T10:55:21Z</time>
      </trkpt>
      <trkpt lat="45.29709" lon="5.8265">
        <ele>1672.4</ele>
        <time>2018-01-18T10:55:31Z</time>
      </trkpt>
      <trkpt lat="45.29708" lon="5.82637">
        <ele>1667</ele>
        <time>2018-01-18T10:55:36Z</time>
      </trkpt>
      <trkpt lat="45.29715" lon="5.82614">
        <ele>1655.9</ele>
        <time>2018-01-18T10:55:41Z</time>
      </trkpt>
      <trkpt lat="45.29708" lon="5.82602">
        <ele>1652.4</ele>
        <time>2018-01-18T10:55:46Z</time>
      </trkpt>
      <trkpt lat="45.29693" lon="5.82592">
        <ele>1647.3</ele>
        <time>2018-01-18T10:55:52Z</time>
      </trkpt>
      <trkpt lat="45.29688" lon="5.82589">
        <ele>1645</ele>
        <time>2018-01-18T10:55:58Z</time>
      </trkpt>
      <trkpt lat="45.29689" lon="5.82587">
        <ele>1644.4</ele>
        <time>2018-01-18T10:56:14Z</time>
      </trkpt>
      <trkpt lat="45.29688" lon="5.82587">
        <ele>1643.8</ele>
        <time>2018-01-18T10:56:36Z</time>
      </trkpt>
      <trkpt lat="45.29688" lon="5.82586">
        <ele>1643.2</ele>
        <time>2018-01-18T10:57:12Z</time>
      </trkpt>
      <trkpt lat="45.29681" lon="5.82567">
        <ele>1634.6</ele>
        <time>2018-01-18T10:57:17Z</time>
      </trkpt>
      <trkpt lat="45.29681" lon="5.82503">
        <ele>1614.2</ele>
        <time>2018-01-18T10:57:27Z</time>
      </trkpt>
      <trkpt lat="45.29674" lon="5.82503">
        <ele>1611.7</ele>
        <time>2018-01-18T10:57:35Z</time>
      </trkpt>
      <trkpt lat="45.29673" lon="5.82506">
        <ele>1612.7</ele>
        <time>2018-01-18T10:57:58Z</time>
      </trkpt>
      <trkpt lat="45.29673" lon="5.82504">
        <ele>1612.1</ele>
        <time>2018-01-18T10:58:22Z</time>
      </trkpt>
      <trkpt lat="45.29681" lon="5.8248">
        <ele>1602</ele>
        <time>2018-01-18T10:58:27Z</time>
      </trkpt>
      <trkpt lat="45.29684" lon="5.82455">
        <ele>1591.5</ele>
        <time>2018-01-18T10:58:32Z</time>
      </trkpt>
      <trkpt lat="45.29686" lon="5.8243">
        <ele>1580</ele>
        <time>2018-01-18T10:58:37Z</time>
      </trkpt>
      <trkpt lat="45.29686" lon="5.82408">
        <ele>1569.6</ele>
        <time>2018-01-18T10:58:43Z</time>
      </trkpt>
      <trkpt lat="45.29688" lon="5.82409">
        <ele>1571.1</ele>
        <time>2018-01-18T10:58:51Z</time>
      </trkpt>
      <trkpt lat="45.29686" lon="5.82406">
        <ele>1568.5</ele>
        <time>2018-01-18T10:59:02Z</time>
      </trkpt>
      <trkpt lat="45.29689" lon="5.82403">
        <ele>1565.5</ele>
        <time>2018-01-18T10:59:07Z</time>
      </trkpt>
      <trkpt lat="45.29693" lon="5.82397">
        <ele>1562.1</ele>
        <time>2018-01-18T10:59:12Z</time>
      </trkpt>
      <trkpt lat="45.29691" lon="5.82378">
        <ele>1550.3</ele>
        <time>2018-01-18T10:59:29Z</time>
      </trkpt>
      <trkpt lat="45.29693" lon="5.82371">
        <ele>1547.1</ele>
        <time>2018-01-18T10:59:34Z</time>
      </trkpt>
      <trkpt lat="45.29694" lon="5.82365">
        <ele>1540.4</ele>
        <time>2018-01-18T10:59:41Z</time>
      </trkpt>
      <trkpt lat="45.29693" lon="5.82358">
        <ele>1536.8</ele>
        <time>2018-01-18T10:59:46Z</time>
      </trkpt>
      <trkpt lat="45.29694" lon="5.8235">
        <ele>1529.7</ele>
        <time>2018-01-18T10:59:53Z</time>
      </trkpt>
      <trkpt lat="45.29697" lon="5.82343">
        <ele>1523</ele>
        <time>2018-01-18T10:59:58Z</time>
      </trkpt>
      <trkpt lat="45.29696" lon="5.82342">
        <ele>1522.4</ele>
        <time>2018-01-18T11:00:04Z</time>
      </trkpt>
      <trkpt lat="45.29692" lon="5.82339">
        <ele>1519</ele>
        <time>2018-01-18T11:00:09Z</time>
      </trkpt>
      <trkpt lat="45.29698" lon="5.82331">
        <ele>1512.3</ele>
        <time>2018-01-18T11:00:16Z</time>
      </trkpt>
      <trkpt lat="45.29706" lon="5.82322">
        <ele>1505.7</ele>
        <time>2018-01-18T11:00:22Z</time>
      </trkpt>
      <trkpt lat="45.29706" lon="5.82298">
        <ele>1490.2</ele>
        <time>2018-01-18T11:00:34Z</time>
      </trkpt>
      <trkpt lat="45.29707" lon="5.82298">
        <ele>1489.7</ele>
        <time>2018-01-18T11:00:40Z</time>
      </trkpt>
      <trkpt lat="45.29704" lon="5.82296">
        <ele>1486.4</ele>
        <time>2018-01-18T11:00:47Z</time>
      </trkpt>
      <trkpt lat="45.29703" lon="5.82294">
        <ele>1485.8</ele>
        <time>2018-01-18T11:00:54Z</time>
      </trkpt>
      <trkpt lat="45.29707" lon="5.82284">
        <ele>1485.9</ele>
        <time>2018-01-18T11:01:30Z</time>
      </trkpt>
      <trkpt lat="45.29709" lon="5.82282">
        <ele>1486</ele>
        <time>2018-01-18T11:01:36Z</time>
      </trkpt>
      <trkpt lat="45.29708" lon="5.82279">
        <ele>1486.2</ele>
        <time>2018-01-18T11:01:42Z</time>
      </trkpt>
      <trkpt lat="45.29708" lon="5.82278">
        <ele>1486.4</ele>
        <time>2018-01-18T11:02:04Z</time>
      </trkpt>
      <trkpt lat="45.29714" lon="5.82275">
        <ele>1487.7</ele>
        <time>2018-01-18T11:02:10Z</time>
      </trkpt>
      <trkpt lat="45.29715" lon="5.82277">
        <ele>1488.1</ele>
        <time>2018-01-18T11:02:16Z</time>
      </trkpt>
      <trkpt lat="45.29711" lon="5.82267">
        <ele>1489.4</ele>
        <time>2018-01-18T11:02:30Z</time>
      </trkpt>
      <trkpt lat="45.29711" lon="5.82281">
        <ele>1489.8</ele>
        <time>2018-01-18T11:02:43Z</time>
      </trkpt>
      <trkpt lat="45.29713" lon="5.82279">
        <ele>1489.9</ele>
        <time>2018-01-18T11:03:04Z</time>
      </trkpt>
      <trkpt lat="45.29714" lon="5.82283">
        <ele>1490.3</ele>
        <time>2018-01-18T11:03:17Z</time>
      </trkpt>
      <trkpt lat="45.29712" lon="5.82284">
        <ele>1490.6</ele>
        <time>2018-01-18T11:03:38Z</time>
      </trkpt>
      <trkpt lat="45.29726" lon="5.82278">
        <ele>1493.5</ele>
        <time>2018-01-18T11:04:02Z</time>
      </trkpt>
      <trkpt lat="45.2975" lon="5.82268">
        <ele>1497.6</ele>
        <time>2018-01-18T11:04:12Z</time>
      </trkpt>
      <trkpt lat="45.2976" lon="5.82268">
        <ele>1499</ele>
        <time>2018-01-18T11:04:17Z</time>
      </trkpt>
      <trkpt lat="45.29797" lon="5.82259">
        <ele>1491.4</ele>
        <time>2018-01-18T11:04:32Z</time>
      </trkpt>
      <trkpt lat="45.29808" lon="5.82261">
        <ele>1490.8</ele>
        <time>2018-01-18T11:04:37Z</time>
      </trkpt>
      <trkpt lat="45.29811" lon="5.82267">
        <ele>1492.7</ele>
        <time>2018-01-18T11:04:43Z</time>
      </trkpt>
      <trkpt lat="45.29808" lon="5.82263">
        <ele>1492.6</ele>
        <time>2018-01-18T11:04:48Z</time>
      </trkpt>
      <trkpt lat="45.29807" lon="5.82264">
        <ele>1492.6</ele>
        <time>2018-01-18T11:04:54Z</time>
      </trkpt>
      <trkpt lat="45.29808" lon="5.82267">
        <ele>1494.5</ele>
        <time>2018-01-18T11:05:01Z</time>
      </trkpt>
      <trkpt lat="45.29813" lon="5.82272">
        <ele>1496.5</ele>
        <time>2018-01-18T11:05:14Z</time>
      </trkpt>
      <trkpt lat="45.29816" lon="5.82274">
        <ele>1496.1</ele>
        <time>2018-01-18T11:05:31Z</time>
      </trkpt>
      <trkpt lat="45.29846" lon="5.82258">
        <ele>1485.3</ele>
        <time>2018-01-18T11:05:47Z</time>
      </trkpt>
      <trkpt lat="45.29866" lon="5.82246">
        <ele>1479.6</ele>
        <time>2018-01-18T11:05:57Z</time>
      </trkpt>
      <trkpt lat="45.29871" lon="5.82243">
        <ele>1476.8</ele>
        <time>2018-01-18T11:06:04Z</time>
      </trkpt>
      <trkpt lat="45.29881" lon="5.82238">
        <ele>1473.3</ele>
        <time>2018-01-18T11:06:09Z</time>
      </trkpt>
      <trkpt lat="45.29891" lon="5.82233">
        <ele>1469.2</ele>
        <time>2018-01-18T11:06:14Z</time>
      </trkpt>
      <trkpt lat="45.29902" lon="5.8223">
        <ele>1463.9</ele>
        <time>2018-01-18T11:06:19Z</time>
      </trkpt>
      <trkpt lat="45.29915" lon="5.82223">
        <ele>1456.1</ele>
        <time>2018-01-18T11:06:24Z</time>
      </trkpt>
      <trkpt lat="45.29929" lon="5.82225">
        <ele>1453.7</ele>
        <time>2018-01-18T11:06:29Z</time>
      </trkpt>
      <trkpt lat="45.29933" lon="5.82224">
        <ele>1452.7</ele>
        <time>2018-01-18T11:06:38Z</time>
      </trkpt>
      <trkpt lat="45.29934" lon="5.82219">
        <ele>1447.3</ele>
        <time>2018-01-18T11:06:53Z</time>
      </trkpt>
      <trkpt lat="45.29938" lon="5.82218">
        <ele>1446.2</ele>
        <time>2018-01-18T11:06:58Z</time>
      </trkpt>
      <trkpt lat="45.29958" lon="5.82222">
        <ele>1442.4</ele>
        <time>2018-01-18T11:07:10Z</time>
      </trkpt>
      <trkpt lat="45.29979" lon="5.82232">
        <ele>1438.3</ele>
        <time>2018-01-18T11:07:28Z</time>
      </trkpt>
      <trkpt lat="45.29984" lon="5.82231">
        <ele>1435.7</ele>
        <time>2018-01-18T11:07:47Z</time>
      </trkpt>
      <trkpt lat="45.29987" lon="5.82231">
        <ele>1434.3</ele>
        <time>2018-01-18T11:07:59Z</time>
      </trkpt>
      <trkpt lat="45.29989" lon="5.82235">
        <ele>1435.4</ele>
        <time>2018-01-18T11:08:17Z</time>
      </trkpt>
      <trkpt lat="45.29997" lon="5.8223">
        <ele>1430.2</ele>
        <time>2018-01-18T11:08:37Z</time>
      </trkpt>
      <trkpt lat="45.30001" lon="5.82235">
        <ele>1431.1</ele>
        <time>2018-01-18T11:08:51Z</time>
      </trkpt>
      <trkpt lat="45.29998" lon="5.82235">
        <ele>1432.3</ele>
        <time>2018-01-18T11:08:57Z</time>
      </trkpt>
      <trkpt lat="45.30001" lon="5.82235">
        <ele>1430.6</ele>
        <time>2018-01-18T11:09:08Z</time>
      </trkpt>
      <trkpt lat="45.3" lon="5.82231">
        <ele>1427.8</ele>
        <time>2018-01-18T11:09:14Z</time>
      </trkpt>
      <trkpt lat="45.29997" lon="5.82224">
        <ele>1426.4</ele>
        <time>2018-01-18T11:09:19Z</time>
      </trkpt>
      <trkpt lat="45.29995" lon="5.82219">
        <ele>1421</ele>
        <time>2018-01-18T11:09:28Z</time>
      </trkpt>
      <trkpt lat="45.29989" lon="5.82205">
        <ele>1417.2</ele>
        <time>2018-01-18T11:09:33Z</time>
      </trkpt>
      <trkpt lat="45.29986" lon="5.82201">
        <ele>1416.5</ele>
        <time>2018-01-18T11:09:42Z</time>
      </trkpt>
      <trkpt lat="45.29986" lon="5.82186">
        <ele>1410.9</ele>
        <time>2018-01-18T11:09:47Z</time>
      </trkpt>
      <trkpt lat="45.29991" lon="5.82177">
        <ele>1405.8</ele>
        <time>2018-01-18T11:09:52Z</time>
      </trkpt>
      <trkpt lat="45.29998" lon="5.82172">
        <ele>1397.6</ele>
        <time>2018-01-18T11:09:57Z</time>
      </trkpt>
      <trkpt lat="45.3" lon="5.82157">
        <ele>1393.7</ele>
        <time>2018-01-18T11:10:08Z</time>
      </trkpt>
      <trkpt lat="45.30003" lon="5.82157">
        <ele>1391.7</ele>
        <time>2018-01-18T11:10:13Z</time>
      </trkpt>
      <trkpt lat="45.30005" lon="5.8216">
        <ele>1390.8</ele>
        <time>2018-01-18T11:10:19Z</time>
      </trkpt>
      <trkpt lat="45.30007" lon="5.82166">
        <ele>1390</ele>
        <time>2018-01-18T11:10:34Z</time>
      </trkpt>
      <trkpt lat="45.30008" lon="5.82165">
        <ele>1389.7</ele>
        <time>2018-01-18T11:10:48Z</time>
      </trkpt>
      <trkpt lat="45.30005" lon="5.82165">
        <ele>1391.2</ele>
        <time>2018-01-18T11:10:59Z</time>
      </trkpt>
      <trkpt lat="45.30001" lon="5.82167">
        <ele>1392.8</ele>
        <time>2018-01-18T11:11:05Z</time>
      </trkpt>
      <trkpt lat="45.30008" lon="5.82162">
        <ele>1388</ele>
        <time>2018-01-18T11:11:32Z</time>
      </trkpt>
      <trkpt lat="45.3001" lon="5.82168">
        <ele>1387.2</ele>
        <time>2018-01-18T11:11:55Z</time>
      </trkpt>
      <trkpt lat="45.30008" lon="5.82174">
        <ele>1391.1</ele>
        <time>2018-01-18T11:12:07Z</time>
      </trkpt>
      <trkpt lat="45.30011" lon="5.82174">
        <ele>1389.2</ele>
        <time>2018-01-18T11:12:29Z</time>
      </trkpt>
      <trkpt lat="45.30014" lon="5.82172">
        <ele>1386.1</ele>
        <time>2018-01-18T11:12:35Z</time>
      </trkpt>
      <trkpt lat="45.30017" lon="5.82166">
        <ele>1383.1</ele>
        <time>2018-01-18T11:12:40Z</time>
      </trkpt>
      <trkpt lat="45.30012" lon="5.82164">
        <ele>1386.1</ele>
        <time>2018-01-18T11:12:57Z</time>
      </trkpt>
      <trkpt lat="45.3001" lon="5.82166">
        <ele>1385.9</ele>
        <time>2018-01-18T11:13:03Z</time>
      </trkpt>
      <trkpt lat="45.3001" lon="5.82169">
        <ele>1388.5</ele>
        <time>2018-01-18T11:13:08Z</time>
      </trkpt>
      <trkpt lat="45.30009" lon="5.82169">
        <ele>1388.2</ele>
        <time>2018-01-18T11:13:19Z</time>
      </trkpt>
      <trkpt lat="45.3001" lon="5.82178">
        <ele>1390.8</ele>
        <time>2018-01-18T11:13:38Z</time>
      </trkpt>
      <trkpt lat="45.30011" lon="5.8218">
        <ele>1388.9</ele>
        <time>2018-01-18T11:13:44Z</time>
      </trkpt>
      <trkpt lat="45.30009" lon="5.82177">
        <ele>1390.3</ele>
        <time>2018-01-18T11:13:51Z</time>
      </trkpt>
      <trkpt lat="45.30005" lon="5.82183">
        <ele>1393.5</ele>
        <time>2018-01-18T11:14:08Z</time>
      </trkpt>
      <trkpt lat="45.30013" lon="5.8217">
        <ele>1385.5</ele>
        <time>2018-01-18T11:14:18Z</time>
      </trkpt>
      <trkpt lat="45.30025" lon="5.82162">
        <ele>1374.5</ele>
        <time>2018-01-18T11:14:35Z</time>
      </trkpt>
      <trkpt lat="45.30028" lon="5.82161">
        <ele>1374.3</ele>
        <time>2018-01-18T11:14:40Z</time>
      </trkpt>
      <trkpt lat="45.30028" lon="5.82159">
        <ele>1373.1</ele>
        <time>2018-01-18T11:14:49Z</time>
      </trkpt>
      <trkpt lat="45.30029" lon="5.82157">
        <ele>1371.2</ele>
        <time>2018-01-18T11:14:56Z</time>
      </trkpt>
      <trkpt lat="45.3003" lon="5.82152">
        <ele>1370</ele>
        <time>2018-01-18T11:15:06Z</time>
      </trkpt>
      <trkpt lat="45.3003" lon="5.82153">
        <ele>1369.8</ele>
        <time>2018-01-18T11:15:22Z</time>
      </trkpt>
      <trkpt lat="45.30034" lon="5.82149">
        <ele>1365.5</ele>
        <time>2018-01-18T11:15:44Z</time>
      </trkpt>
      <trkpt lat="45.3003" lon="5.82151">
        <ele>1369.3</ele>
        <time>2018-01-18T11:16:04Z</time>
      </trkpt>
      <trkpt lat="45.30032" lon="5.82145">
        <ele>1365.4</ele>
        <time>2018-01-18T11:16:18Z</time>
      </trkpt>
      <trkpt lat="45.30039" lon="5.82145">
        <ele>1364.9</ele>
        <time>2018-01-18T11:16:31Z</time>
      </trkpt>
      <trkpt lat="45.30039" lon="5.82145">
        <ele>1364.9</ele>
        <time>2018-01-18T11:16:52Z</time>
      </trkpt>
      <trkpt lat="45.30041" lon="5.82144">
        <ele>1364.7</ele>
        <time>2018-01-18T11:17:03Z</time>
      </trkpt>
      <trkpt lat="45.30043" lon="5.82141">
        <ele>1364.4</ele>
        <time>2018-01-18T11:17:13Z</time>
      </trkpt>
      <trkpt lat="45.30042" lon="5.82141">
        <ele>1364.2</ele>
        <time>2018-01-18T11:17:30Z</time>
      </trkpt>
      <trkpt lat="45.30034" lon="5.8215">
        <ele>1362.9</ele>
        <time>2018-01-18T11:17:42Z</time>
      </trkpt>
      <trkpt lat="45.30033" lon="5.8215">
        <ele>1362.8</ele>
        <time>2018-01-18T11:18:00Z</time>
      </trkpt>
      <trkpt lat="45.30042" lon="5.82146">
        <ele>1360.9</ele>
        <time>2018-01-18T11:18:12Z</time>
      </trkpt>
      <trkpt lat="45.30046" lon="5.82144">
        <ele>1360.1</ele>
        <time>2018-01-18T11:18:19Z</time>
      </trkpt>
      <trkpt lat="45.30047" lon="5.82144">
        <ele>1360</ele>
        <time>2018-01-18T11:18:29Z</time>
      </trkpt>
      <trkpt lat="45.30048" lon="5.82146">
        <ele>1359.6</ele>
        <time>2018-01-18T11:18:37Z</time>
      </trkpt>
      <trkpt lat="45.30069" lon="5.82169">
        <ele>1357.2</ele>
        <time>2018-01-18T11:18:47Z</time>
      </trkpt>
      <trkpt lat="45.30079" lon="5.82183">
        <ele>1356</ele>
        <time>2018-01-18T11:18:57Z</time>
      </trkpt>
      <trkpt lat="45.30114" lon="5.82214">
        <ele>1352.4</ele>
        <time>2018-01-18T11:19:07Z</time>
      </trkpt>
      <trkpt lat="45.30137" lon="5.82226">
        <ele>1350.8</ele>
        <time>2018-01-18T11:19:12Z</time>
      </trkpt>
      <trkpt lat="45.30183" lon="5.82248">
        <ele>1348</ele>
        <time>2018-01-18T11:19:27Z</time>
      </trkpt>
      <trkpt lat="45.30206" lon="5.82251">
        <ele>1346.3</ele>
        <time>2018-01-18T11:19:32Z</time>
      </trkpt>
      <trkpt lat="45.30231" lon="5.82248">
        <ele>1344.5</ele>
        <time>2018-01-18T11:19:37Z</time>
      </trkpt>
      <trkpt lat="45.30253" lon="5.82239">
        <ele>1342.9</ele>
        <time>2018-01-18T11:19:42Z</time>
      </trkpt>
      <trkpt lat="45.30276" lon="5.8223">
        <ele>1341.4</ele>
        <time>2018-01-18T11:19:47Z</time>
      </trkpt>
      <trkpt lat="45.30297" lon="5.82229">
        <ele>1340.1</ele>
        <time>2018-01-18T11:19:53Z</time>
      </trkpt>
      <trkpt lat="45.3031" lon="5.82233">
        <ele>1339.3</ele>
        <time>2018-01-18T11:19:58Z</time>
      </trkpt>
      <trkpt lat="45.30329" lon="5.82253">
        <ele>1338.1</ele>
        <time>2018-01-18T11:20:08Z</time>
      </trkpt>
      <trkpt lat="45.30338" lon="5.82279">
        <ele>1336.9</ele>
        <time>2018-01-18T11:20:13Z</time>
      </trkpt>
      <trkpt lat="45.30359" lon="5.82309">
        <ele>1335</ele>
        <time>2018-01-18T11:20:19Z</time>
      </trkpt>
      <trkpt lat="45.30377" lon="5.82329">
        <ele>1333.4</ele>
        <time>2018-01-18T11:20:24Z</time>
      </trkpt>
      <trkpt lat="45.30391" lon="5.82345">
        <ele>1332.2</ele>
        <time>2018-01-18T11:20:29Z</time>
      </trkpt>
      <trkpt lat="45.304" lon="5.82363">
        <ele>1331.2</ele>
        <time>2018-01-18T11:20:34Z</time>
      </trkpt>
      <trkpt lat="45.30411" lon="5.82439">
        <ele>1328.5</ele>
        <time>2018-01-18T11:20:49Z</time>
      </trkpt>
      <trkpt lat="45.30433" lon="5.82503">
        <ele>1325.7</ele>
        <time>2018-01-18T11:20:59Z</time>
      </trkpt>
      <trkpt lat="45.30426" lon="5.82529">
        <ele>1323.6</ele>
        <time>2018-01-18T11:21:04Z</time>
      </trkpt>
      <trkpt lat="45.30414" lon="5.82564">
        <ele>1320.7</ele>
        <time>2018-01-18T11:21:09Z</time>
      </trkpt>
      <trkpt lat="45.30411" lon="5.82604">
        <ele>1318.6</ele>
        <time>2018-01-18T11:21:14Z</time>
      </trkpt>
      <trkpt lat="45.30416" lon="5.82639">
        <ele>1316.6</ele>
        <time>2018-01-18T11:21:19Z</time>
      </trkpt>
      <trkpt lat="45.3042" lon="5.82669">
        <ele>1313.3</ele>
        <time>2018-01-18T11:21:24Z</time>
      </trkpt>
      <trkpt lat="45.30425" lon="5.82692">
        <ele>1312.7</ele>
        <time>2018-01-18T11:21:29Z</time>
      </trkpt>
      <trkpt lat="45.30432" lon="5.82691">
        <ele>1312.4</ele>
        <time>2018-01-18T11:21:47Z</time>
      </trkpt>
      <trkpt lat="45.30438" lon="5.8269">
        <ele>1312.1</ele>
        <time>2018-01-18T11:21:56Z</time>
      </trkpt>
      <trkpt lat="45.30438" lon="5.82691">
        <ele>1312.1</ele>
        <time>2018-01-18T11:22:14Z</time>
      </trkpt>
      <trkpt lat="45.30431" lon="5.82689">
        <ele>1311.9</ele>
        <time>2018-01-18T11:22:43Z</time>
      </trkpt>
      <trkpt lat="45.30427" lon="5.82695">
        <ele>1311.9</ele>
        <time>2018-01-18T11:23:59Z</time>
      </trkpt>
      <trkpt lat="45.30428" lon="5.82693">
        <ele>1311.9</ele>
        <time>2018-01-18T11:24:10Z</time>
      </trkpt>
      <trkpt lat="45.30431" lon="5.82689">
        <ele>1311.9</ele>
        <time>2018-01-18T11:24:35Z</time>
      </trkpt>
      <trkpt lat="45.30434" lon="5.82692">
        <ele>1311.9</ele>
        <time>2018-01-18T11:24:55Z</time>
      </trkpt>
      <trkpt lat="45.3043" lon="5.82695">
        <ele>1311.9</ele>
        <time>2018-01-18T11:25:40Z</time>
      </trkpt>
      <trkpt lat="45.30436" lon="5.8269">
        <ele>1311.9</ele>
        <time>2018-01-18T11:26:14Z</time>
      </trkpt>
      <trkpt lat="45.30439" lon="5.82691">
        <ele>1311.9</ele>
        <time>2018-01-18T11:26:30Z</time>
      </trkpt>
      <trkpt lat="45.30436" lon="5.82692">
        <ele>1311.9</ele>
        <time>2018-01-18T11:26:49Z</time>
      </trkpt>
      <trkpt lat="45.3044" lon="5.82693">
        <ele>1312</ele>
        <time>2018-01-18T11:28:03Z</time>
      </trkpt>
      <trkpt lat="45.30439" lon="5.82689">
        <ele>1312.6</ele>
        <time>2018-01-18T11:28:25Z</time>
      </trkpt>
      <trkpt lat="45.3044" lon="5.8269">
        <ele>1312.8</ele>
        <time>2018-01-18T11:28:37Z</time>
      </trkpt>
      <trkpt lat="45.30444" lon="5.8269">
        <ele>1313.8</ele>
        <time>2018-01-18T11:28:43Z</time>
      </trkpt>
      <trkpt lat="45.30441" lon="5.82689">
        <ele>1314.5</ele>
        <time>2018-01-18T11:29:34Z</time>
      </trkpt>
      <trkpt lat="45.30436" lon="5.82691">
        <ele>1315.5</ele>
        <time>2018-01-18T11:30:30Z</time>
      </trkpt>
      <trkpt lat="45.30436" lon="5.82692">
        <ele>1315.6</ele>
        <time>2018-01-18T11:30:49Z</time>
      </trkpt>
      <trkpt lat="45.30444" lon="5.82692">
        <ele>1316.7</ele>
        <time>2018-01-18T11:32:16Z</time>
      </trkpt>
      <trkpt lat="45.30445" lon="5.82694">
        <ele>1316.8</ele>
        <time>2018-01-18T11:32:29Z</time>
      </trkpt>
      <trkpt lat="45.30439" lon="5.82693">
        <ele>1317.3</ele>
        <time>2018-01-18T11:32:47Z</time>
      </trkpt>
      <trkpt lat="45.30438" lon="5.82696">
        <ele>1317.5</ele>
        <time>2018-01-18T11:32:53Z</time>
      </trkpt>
      <trkpt lat="45.30448" lon="5.82696">
        <ele>1318.3</ele>
        <time>2018-01-18T11:33:05Z</time>
      </trkpt>
      <trkpt lat="45.30451" lon="5.82695">
        <ele>1318.6</ele>
        <time>2018-01-18T11:33:12Z</time>
      </trkpt>
      <trkpt lat="45.30444" lon="5.82694">
        <ele>1319.1</ele>
        <time>2018-01-18T11:33:29Z</time>
      </trkpt>
      <trkpt lat="45.30432" lon="5.82713">
        <ele>1320.6</ele>
        <time>2018-01-18T11:33:46Z</time>
      </trkpt>
      <trkpt lat="45.30423" lon="5.82725">
        <ele>1321.7</ele>
        <time>2018-01-18T11:33:58Z</time>
      </trkpt>
      <trkpt lat="45.30415" lon="5.82744">
        <ele>1323</ele>
        <time>2018-01-18T11:34:16Z</time>
      </trkpt>
      <trkpt lat="45.3041" lon="5.82754">
        <ele>1323.6</ele>
        <time>2018-01-18T11:34:27Z</time>
      </trkpt>
      <trkpt lat="45.30403" lon="5.82765">
        <ele>1324.5</ele>
        <time>2018-01-18T11:34:40Z</time>
      </trkpt>
      <trkpt lat="45.30391" lon="5.82785">
        <ele>1326.1</ele>
        <time>2018-01-18T11:34:59Z</time>
      </trkpt>
      <trkpt lat="45.30361" lon="5.82832">
        <ele>1330.2</ele>
        <time>2018-01-18T11:35:47Z</time>
      </trkpt>
      <trkpt lat="45.30356" lon="5.82843">
        <ele>1332.3</ele>
        <time>2018-01-18T11:35:59Z</time>
      </trkpt>
      <trkpt lat="45.3035" lon="5.82871">
        <ele>1335</ele>
        <time>2018-01-18T11:36:21Z</time>
      </trkpt>
      <trkpt lat="45.30352" lon="5.82893">
        <ele>1336.3</ele>
        <time>2018-01-18T11:36:38Z</time>
      </trkpt>
      <trkpt lat="45.30354" lon="5.82898">
        <ele>1336.6</ele>
        <time>2018-01-18T11:36:44Z</time>
      </trkpt>
      <trkpt lat="45.30368" lon="5.8292">
        <ele>1338.1</ele>
        <time>2018-01-18T11:37:08Z</time>
      </trkpt>
      <trkpt lat="45.30372" lon="5.82925">
        <ele>1338.5</ele>
        <time>2018-01-18T11:37:14Z</time>
      </trkpt>
      <trkpt lat="45.30386" lon="5.82933">
        <ele>1339.8</ele>
        <time>2018-01-18T11:37:33Z</time>
      </trkpt>
      <trkpt lat="45.3039" lon="5.82917">
        <ele>1340.8</ele>
        <time>2018-01-18T11:37:55Z</time>
      </trkpt>
      <trkpt lat="45.30391" lon="5.82919">
        <ele>1340.9</ele>
        <time>2018-01-18T11:38:15Z</time>
      </trkpt>
      <trkpt lat="45.30402" lon="5.82922">
        <ele>1341.7</ele>
        <time>2018-01-18T11:38:29Z</time>
      </trkpt>
      <trkpt lat="45.30445" lon="5.82909">
        <ele>1345.2</ele>
        <time>2018-01-18T11:39:09Z</time>
      </trkpt>
      <trkpt lat="45.30452" lon="5.82911">
        <ele>1345.8</ele>
        <time>2018-01-18T11:39:15Z</time>
      </trkpt>
      <trkpt lat="45.30462" lon="5.82917">
        <ele>1346.7</ele>
        <time>2018-01-18T11:39:25Z</time>
      </trkpt>
      <trkpt lat="45.30467" lon="5.82923">
        <ele>1347.3</ele>
        <time>2018-01-18T11:39:31Z</time>
      </trkpt>
      <trkpt lat="45.30468" lon="5.8293">
        <ele>1347.7</ele>
        <time>2018-01-18T11:39:37Z</time>
      </trkpt>
      <trkpt lat="45.30469" lon="5.82937">
        <ele>1348.1</ele>
        <time>2018-01-18T11:39:43Z</time>
      </trkpt>
      <trkpt lat="45.30459" lon="5.8298">
        <ele>1350.7</ele>
        <time>2018-01-18T11:40:18Z</time>
      </trkpt>
      <trkpt lat="45.30457" lon="5.82985">
        <ele>1351</ele>
        <time>2018-01-18T11:40:25Z</time>
      </trkpt>
      <trkpt lat="45.30457" lon="5.82986">
        <ele>1351.1</ele>
        <time>2018-01-18T11:40:34Z</time>
      </trkpt>
      <trkpt lat="45.30457" lon="5.83003">
        <ele>1352.3</ele>
        <time>2018-01-18T11:40:54Z</time>
      </trkpt>
      <trkpt lat="45.30466" lon="5.83017">
        <ele>1353.6</ele>
        <time>2018-01-18T11:41:13Z</time>
      </trkpt>
      <trkpt lat="45.3048" lon="5.83032">
        <ele>1359.4</ele>
        <time>2018-01-18T11:41:42Z</time>
      </trkpt>
      <trkpt lat="45.305" lon="5.83037">
        <ele>1366</ele>
        <time>2018-01-18T11:42:12Z</time>
      </trkpt>
      <trkpt lat="45.3053" lon="5.8304">
        <ele>1376.1</ele>
        <time>2018-01-18T11:42:59Z</time>
      </trkpt>
      <trkpt lat="45.30532" lon="5.8305">
        <ele>1378</ele>
        <time>2018-01-18T11:43:10Z</time>
      </trkpt>
      <trkpt lat="45.30532" lon="5.83056">
        <ele>1378.4</ele>
        <time>2018-01-18T11:43:24Z</time>
      </trkpt>
      <trkpt lat="45.30534" lon="5.831">
        <ele>1387.4</ele>
        <time>2018-01-18T11:44:06Z</time>
      </trkpt>
      <trkpt lat="45.30535" lon="5.83104">
        <ele>1387.9</ele>
        <time>2018-01-18T11:44:11Z</time>
      </trkpt>
      <trkpt lat="45.30547" lon="5.83105">
        <ele>1391.2</ele>
        <time>2018-01-18T11:44:36Z</time>
      </trkpt>
      <trkpt lat="45.30545" lon="5.83136">
        <ele>1395.5</ele>
        <time>2018-01-18T11:45:06Z</time>
      </trkpt>
      <trkpt lat="45.30547" lon="5.83142">
        <ele>1395.6</ele>
        <time>2018-01-18T11:45:13Z</time>
      </trkpt>
      <trkpt lat="45.30553" lon="5.83143">
        <ele>1397.5</ele>
        <time>2018-01-18T11:45:25Z</time>
      </trkpt>
      <trkpt lat="45.30551" lon="5.83148">
        <ele>1398.4</ele>
        <time>2018-01-18T11:45:32Z</time>
      </trkpt>
      <trkpt lat="45.30552" lon="5.83149">
        <ele>1398.7</ele>
        <time>2018-01-18T11:45:40Z</time>
      </trkpt>
      <trkpt lat="45.30567" lon="5.83133">
        <ele>1399.4</ele>
        <time>2018-01-18T11:46:04Z</time>
      </trkpt>
      <trkpt lat="45.30579" lon="5.83107">
        <ele>1399.3</ele>
        <time>2018-01-18T11:46:25Z</time>
      </trkpt>
      <trkpt lat="45.30605" lon="5.83066">
        <ele>1403.8</ele>
        <time>2018-01-18T11:47:06Z</time>
      </trkpt>
      <trkpt lat="45.30609" lon="5.83059">
        <ele>1403.7</ele>
        <time>2018-01-18T11:47:12Z</time>
      </trkpt>
      <trkpt lat="45.3062" lon="5.83017">
        <ele>1402.4</ele>
        <time>2018-01-18T11:47:45Z</time>
      </trkpt>
      <trkpt lat="45.30631" lon="5.8299">
        <ele>1405</ele>
        <time>2018-01-18T11:48:09Z</time>
      </trkpt>
      <trkpt lat="45.3064" lon="5.82971">
        <ele>1408.5</ele>
        <time>2018-01-18T11:48:27Z</time>
      </trkpt>
      <trkpt lat="45.3065" lon="5.82951">
        <ele>1410.2</ele>
        <time>2018-01-18T11:48:45Z</time>
      </trkpt>
      <trkpt lat="45.30673" lon="5.82909">
        <ele>1415.4</ele>
        <time>2018-01-18T11:49:26Z</time>
      </trkpt>
      <trkpt lat="45.30683" lon="5.82883">
        <ele>1416.7</ele>
        <time>2018-01-18T11:49:48Z</time>
      </trkpt>
      <trkpt lat="45.30695" lon="5.82864">
        <ele>1420.5</ele>
        <time>2018-01-18T11:50:10Z</time>
      </trkpt>
      <trkpt lat="45.30704" lon="5.82858">
        <ele>1422.8</ele>
        <time>2018-01-18T11:50:22Z</time>
      </trkpt>
      <trkpt lat="45.30707" lon="5.82853">
        <ele>1423.7</ele>
        <time>2018-01-18T11:50:27Z</time>
      </trkpt>
      <trkpt lat="45.30731" lon="5.82803">
        <ele>1428.5</ele>
        <time>2018-01-18T11:51:13Z</time>
      </trkpt>
      <trkpt lat="45.30747" lon="5.82782">
        <ele>1427.7</ele>
        <time>2018-01-18T11:51:41Z</time>
      </trkpt>
      <trkpt lat="45.30748" lon="5.82779">
        <ele>1427.6</ele>
        <time>2018-01-18T11:51:47Z</time>
      </trkpt>
      <trkpt lat="45.30755" lon="5.82744">
        <ele>1427.8</ele>
        <time>2018-01-18T11:52:08Z</time>
      </trkpt>
      <trkpt lat="45.30763" lon="5.82734">
        <ele>1427.5</ele>
        <time>2018-01-18T11:52:26Z</time>
      </trkpt>
      <trkpt lat="45.30772" lon="5.82715">
        <ele>1429.2</ele>
        <time>2018-01-18T11:52:42Z</time>
      </trkpt>
      <trkpt lat="45.30786" lon="5.82705">
        <ele>1434.8</ele>
        <time>2018-01-18T11:53:00Z</time>
      </trkpt>
      <trkpt lat="45.30796" lon="5.82705">
        <ele>1437.6</ele>
        <time>2018-01-18T11:53:12Z</time>
      </trkpt>
      <trkpt lat="45.30803" lon="5.8269">
        <ele>1439.4</ele>
        <time>2018-01-18T11:53:24Z</time>
      </trkpt>
      <trkpt lat="45.30813" lon="5.82673">
        <ele>1443</ele>
        <time>2018-01-18T11:53:42Z</time>
      </trkpt>
      <trkpt lat="45.3083" lon="5.82642">
        <ele>1449.3</ele>
        <time>2018-01-18T11:54:11Z</time>
      </trkpt>
      <trkpt lat="45.30833" lon="5.82637">
        <ele>1450.8</ele>
        <time>2018-01-18T11:54:17Z</time>
      </trkpt>
      <trkpt lat="45.30854" lon="5.82608">
        <ele>1457.5</ele>
        <time>2018-01-18T11:54:52Z</time>
      </trkpt>
      <trkpt lat="45.30867" lon="5.82601">
        <ele>1460.3</ele>
        <time>2018-01-18T11:55:11Z</time>
      </trkpt>
      <trkpt lat="45.30867" lon="5.826">
        <ele>1460.3</ele>
        <time>2018-01-18T11:56:12Z</time>
      </trkpt>
      <trkpt lat="45.30869" lon="5.82595">
        <ele>1460</ele>
        <time>2018-01-18T11:56:30Z</time>
      </trkpt>
      <trkpt lat="45.30868" lon="5.82601">
        <ele>1460.4</ele>
        <time>2018-01-18T11:58:01Z</time>
      </trkpt>
      <trkpt lat="45.3087" lon="5.82601">
        <ele>1461.4</ele>
        <time>2018-01-18T11:58:31Z</time>
      </trkpt>
      <trkpt lat="45.30878" lon="5.82603">
        <ele>1463.9</ele>
        <time>2018-01-18T11:58:43Z</time>
      </trkpt>
      <trkpt lat="45.30876" lon="5.82622">
        <ele>1465.7</ele>
        <time>2018-01-18T11:59:12Z</time>
      </trkpt>
      <trkpt lat="45.30872" lon="5.82645">
        <ele>1466</ele>
        <time>2018-01-18T11:59:46Z</time>
      </trkpt>
      <trkpt lat="45.30872" lon="5.82669">
        <ele>1468.8</ele>
        <time>2018-01-18T12:00:15Z</time>
      </trkpt>
      <trkpt lat="45.30872" lon="5.82678">
        <ele>1470.4</ele>
        <time>2018-01-18T12:00:27Z</time>
      </trkpt>
      <trkpt lat="45.30879" lon="5.82672">
        <ele>1473.5</ele>
        <time>2018-01-18T12:00:46Z</time>
      </trkpt>
      <trkpt lat="45.30889" lon="5.82669">
        <ele>1476.6</ele>
        <time>2018-01-18T12:01:05Z</time>
      </trkpt>
      <trkpt lat="45.30913" lon="5.82668">
        <ele>1485.1</ele>
        <time>2018-01-18T12:01:48Z</time>
      </trkpt>
      <trkpt lat="45.30915" lon="5.8267">
        <ele>1485.1</ele>
        <time>2018-01-18T12:01:54Z</time>
      </trkpt>
      <trkpt lat="45.30927" lon="5.8268">
        <ele>1491.3</ele>
        <time>2018-01-18T12:02:23Z</time>
      </trkpt>
      <trkpt lat="45.30936" lon="5.82686">
        <ele>1494.4</ele>
        <time>2018-01-18T12:02:41Z</time>
      </trkpt>
      <trkpt lat="45.3097" lon="5.82702">
        <ele>1502.1</ele>
        <time>2018-01-18T12:03:36Z</time>
      </trkpt>
      <trkpt lat="45.30985" lon="5.82711">
        <ele>1505</ele>
        <time>2018-01-18T12:04:01Z</time>
      </trkpt>
      <trkpt lat="45.30986" lon="5.82714">
        <ele>1505.6</ele>
        <time>2018-01-18T12:04:13Z</time>
      </trkpt>
      <trkpt lat="45.30986" lon="5.82723">
        <ele>1506.7</ele>
        <time>2018-01-18T12:04:27Z</time>
      </trkpt>
      <trkpt lat="45.30986" lon="5.82726">
        <ele>1506.7</ele>
        <time>2018-01-18T12:04:45Z</time>
      </trkpt>
      <trkpt lat="45.30981" lon="5.82769">
        <ele>1510.5</ele>
        <time>2018-01-18T12:05:27Z</time>
      </trkpt>
      <trkpt lat="45.3098" lon="5.82787">
        <ele>1512.1</ele>
        <time>2018-01-18T12:05:45Z</time>
      </trkpt>
      <trkpt lat="45.30979" lon="5.82799">
        <ele>1513</ele>
        <time>2018-01-18T12:05:57Z</time>
      </trkpt>
      <trkpt lat="45.30987" lon="5.82805">
        <ele>1514.7</ele>
        <time>2018-01-18T12:06:09Z</time>
      </trkpt>
      <trkpt lat="45.3102" lon="5.82831">
        <ele>1522.3</ele>
        <time>2018-01-18T12:07:02Z</time>
      </trkpt>
      <trkpt lat="45.31022" lon="5.82835">
        <ele>1522.6</ele>
        <time>2018-01-18T12:07:08Z</time>
      </trkpt>
      <trkpt lat="45.31021" lon="5.82854">
        <ele>1525.9</ele>
        <time>2018-01-18T12:07:26Z</time>
      </trkpt>
      <trkpt lat="45.31024" lon="5.82874">
        <ele>1529</ele>
        <time>2018-01-18T12:07:49Z</time>
      </trkpt>
      <trkpt lat="45.31055" lon="5.82897">
        <ele>1536</ele>
        <time>2018-01-18T12:08:47Z</time>
      </trkpt>
      <trkpt lat="45.31065" lon="5.829">
        <ele>1538.9</ele>
        <time>2018-01-18T12:09:04Z</time>
      </trkpt>
      <trkpt lat="45.31073" lon="5.82903">
        <ele>1541.1</ele>
        <time>2018-01-18T12:09:28Z</time>
      </trkpt>
      <trkpt lat="45.31109" lon="5.8292">
        <ele>1551.7</ele>
        <time>2018-01-18T12:10:29Z</time>
      </trkpt>
      <trkpt lat="45.31104" lon="5.82948">
        <ele>1554.2</ele>
        <time>2018-01-18T12:11:03Z</time>
      </trkpt>
      <trkpt lat="45.31096" lon="5.82989">
        <ele>1560.9</ele>
        <time>2018-01-18T12:11:51Z</time>
      </trkpt>
      <trkpt lat="45.31095" lon="5.83">
        <ele>1563.2</ele>
        <time>2018-01-18T12:12:03Z</time>
      </trkpt>
      <trkpt lat="45.31095" lon="5.83002">
        <ele>1564.6</ele>
        <time>2018-01-18T12:12:14Z</time>
      </trkpt>
      <trkpt lat="45.31095" lon="5.83013">
        <ele>1566.8</ele>
        <time>2018-01-18T12:12:26Z</time>
      </trkpt>
      <trkpt lat="45.31097" lon="5.83036">
        <ele>1572.8</ele>
        <time>2018-01-18T12:12:50Z</time>
      </trkpt>
      <trkpt lat="45.31099" lon="5.83052">
        <ele>1575.7</ele>
        <time>2018-01-18T12:13:08Z</time>
      </trkpt>
      <trkpt lat="45.31105" lon="5.83082">
        <ele>1582.8</ele>
        <time>2018-01-18T12:13:51Z</time>
      </trkpt>
      <trkpt lat="45.31105" lon="5.83084">
        <ele>1583.2</ele>
        <time>2018-01-18T12:14:33Z</time>
      </trkpt>
      <trkpt lat="45.31108" lon="5.83099">
        <ele>1586.8</ele>
        <time>2018-01-18T12:14:45Z</time>
      </trkpt>
      <trkpt lat="45.31111" lon="5.83113">
        <ele>1591.8</ele>
        <time>2018-01-18T12:14:57Z</time>
      </trkpt>
      <trkpt lat="45.31118" lon="5.83145">
        <ele>1602.9</ele>
        <time>2018-01-18T12:15:27Z</time>
      </trkpt>
      <trkpt lat="45.3112" lon="5.83151">
        <ele>1604.7</ele>
        <time>2018-01-18T12:15:34Z</time>
      </trkpt>
      <trkpt lat="45.31142" lon="5.83165">
        <ele>1613.9</ele>
        <time>2018-01-18T12:16:04Z</time>
      </trkpt>
      <trkpt lat="45.31144" lon="5.83177">
        <ele>1617.2</ele>
        <time>2018-01-18T12:16:16Z</time>
      </trkpt>
      <trkpt lat="45.31144" lon="5.83195">
        <ele>1623.9</ele>
        <time>2018-01-18T12:16:34Z</time>
      </trkpt>
      <trkpt lat="45.31153" lon="5.83217">
        <ele>1630.9</ele>
        <time>2018-01-18T12:16:58Z</time>
      </trkpt>
      <trkpt lat="45.31155" lon="5.83222">
        <ele>1632.7</ele>
        <time>2018-01-18T12:17:04Z</time>
      </trkpt>
      <trkpt lat="45.31176" lon="5.8326">
        <ele>1641</ele>
        <time>2018-01-18T12:17:53Z</time>
      </trkpt>
      <trkpt lat="45.31197" lon="5.83296">
        <ele>1646.5</ele>
        <time>2018-01-18T12:18:42Z</time>
      </trkpt>
      <trkpt lat="45.31216" lon="5.83334">
        <ele>1652.5</ele>
        <time>2018-01-18T12:19:33Z</time>
      </trkpt>
      <trkpt lat="45.31221" lon="5.83344">
        <ele>1654.9</ele>
        <time>2018-01-18T12:19:45Z</time>
      </trkpt>
      <trkpt lat="45.31231" lon="5.83362">
        <ele>1658.1</ele>
        <time>2018-01-18T12:20:14Z</time>
      </trkpt>
      <trkpt lat="45.31233" lon="5.83361">
        <ele>1656.8</ele>
        <time>2018-01-18T12:20:55Z</time>
      </trkpt>
      <trkpt lat="45.31234" lon="5.83363">
        <ele>1658.4</ele>
        <time>2018-01-18T12:21:24Z</time>
      </trkpt>
      <trkpt lat="45.31246" lon="5.83389">
        <ele>1662.9</ele>
        <time>2018-01-18T12:21:58Z</time>
      </trkpt>
      <trkpt lat="45.31245" lon="5.83394">
        <ele>1664.4</ele>
        <time>2018-01-18T12:23:08Z</time>
      </trkpt>
      <trkpt lat="45.31246" lon="5.83392">
        <ele>1664.9</ele>
        <time>2018-01-18T12:23:43Z</time>
      </trkpt>
      <trkpt lat="45.31247" lon="5.83392">
        <ele>1665.3</ele>
        <time>2018-01-18T12:24:22Z</time>
      </trkpt>
      <trkpt lat="45.31259" lon="5.83418">
        <ele>1668.6</ele>
        <time>2018-01-18T12:24:52Z</time>
      </trkpt>
      <trkpt lat="45.31273" lon="5.83447">
        <ele>1672</ele>
        <time>2018-01-18T12:25:32Z</time>
      </trkpt>
      <trkpt lat="45.31284" lon="5.83462">
        <ele>1673.4</ele>
        <time>2018-01-18T12:26:03Z</time>
      </trkpt>
      <trkpt lat="45.31292" lon="5.83469">
        <ele>1675</ele>
        <time>2018-01-18T12:26:26Z</time>
      </trkpt>
      <trkpt lat="45.31303" lon="5.83475">
        <ele>1674.8</ele>
        <time>2018-01-18T12:26:58Z</time>
      </trkpt>
      <trkpt lat="45.31307" lon="5.83477">
        <ele>1676</ele>
        <time>2018-01-18T12:27:14Z</time>
      </trkpt>
      <trkpt lat="45.3131" lon="5.8348">
        <ele>1675.9</ele>
        <time>2018-01-18T12:27:21Z</time>
      </trkpt>
      <trkpt lat="45.31337" lon="5.83514">
        <ele>1682.8</ele>
        <time>2018-01-18T12:28:30Z</time>
      </trkpt>
      <trkpt lat="45.31336" lon="5.83516">
        <ele>1684.6</ele>
        <time>2018-01-18T12:28:37Z</time>
      </trkpt>
      <trkpt lat="45.31304" lon="5.83516">
        <ele>1690.8</ele>
        <time>2018-01-18T12:29:25Z</time>
      </trkpt>
      <trkpt lat="45.31297" lon="5.83518">
        <ele>1692.4</ele>
        <time>2018-01-18T12:29:39Z</time>
      </trkpt>
      <trkpt lat="45.31297" lon="5.83519">
        <ele>1692.9</ele>
        <time>2018-01-18T12:29:49Z</time>
      </trkpt>
      <trkpt lat="45.31309" lon="5.83537">
        <ele>1697</ele>
        <time>2018-01-18T12:30:18Z</time>
      </trkpt>
      <trkpt lat="45.31312" lon="5.8354">
        <ele>1696.9</ele>
        <time>2018-01-18T12:30:23Z</time>
      </trkpt>
      <trkpt lat="45.31316" lon="5.83551">
        <ele>1699.6</ele>
        <time>2018-01-18T12:30:39Z</time>
      </trkpt>
      <trkpt lat="45.31325" lon="5.8357">
        <ele>1701.5</ele>
        <time>2018-01-18T12:31:07Z</time>
      </trkpt>
      <trkpt lat="45.31301" lon="5.83573">
        <ele>1707.4</ele>
        <time>2018-01-18T12:31:48Z</time>
      </trkpt>
      <trkpt lat="45.31302" lon="5.83582">
        <ele>1708.4</ele>
        <time>2018-01-18T12:33:28Z</time>
      </trkpt>
      <trkpt lat="45.31292" lon="5.83586">
        <ele>1709.2</ele>
        <time>2018-01-18T12:33:44Z</time>
      </trkpt>
      <trkpt lat="45.31282" lon="5.83589">
        <ele>1709.9</ele>
        <time>2018-01-18T12:34:01Z</time>
      </trkpt>
      <trkpt lat="45.31272" lon="5.83587">
        <ele>1710.6</ele>
        <time>2018-01-18T12:34:13Z</time>
      </trkpt>
      <trkpt lat="45.31247" lon="5.83582">
        <ele>1711.7</ele>
        <time>2018-01-18T12:34:48Z</time>
      </trkpt>
      <trkpt lat="45.31234" lon="5.83578">
        <ele>1712.8</ele>
        <time>2018-01-18T12:35:06Z</time>
      </trkpt>
      <trkpt lat="45.31231" lon="5.83575">
        <ele>1713.3</ele>
        <time>2018-01-18T12:35:48Z</time>
      </trkpt>
      <trkpt lat="45.31226" lon="5.83575">
        <ele>1713.8</ele>
        <time>2018-01-18T12:36:16Z</time>
      </trkpt>
      <trkpt lat="45.31224" lon="5.83575">
        <ele>1714.1</ele>
        <time>2018-01-18T12:36:43Z</time>
      </trkpt>
      <trkpt lat="45.31206" lon="5.83568">
        <ele>1716.9</ele>
        <time>2018-01-18T12:37:07Z</time>
      </trkpt>
      <trkpt lat="45.31205" lon="5.83568">
        <ele>1717.1</ele>
        <time>2018-01-18T12:37:13Z</time>
      </trkpt>
      <trkpt lat="45.31197" lon="5.83566">
        <ele>1718.5</ele>
        <time>2018-01-18T12:37:24Z</time>
      </trkpt>
      <trkpt lat="45.31196" lon="5.83566">
        <ele>1718.7</ele>
        <time>2018-01-18T12:37:35Z</time>
      </trkpt>
      <trkpt lat="45.31185" lon="5.83561">
        <ele>1720.2</ele>
        <time>2018-01-18T12:37:53Z</time>
      </trkpt>
      <trkpt lat="45.31173" lon="5.83557">
        <ele>1722.6</ele>
        <time>2018-01-18T12:38:12Z</time>
      </trkpt>
      <trkpt lat="45.31165" lon="5.83555">
        <ele>1723.7</ele>
        <time>2018-01-18T12:38:24Z</time>
      </trkpt>
      <trkpt lat="45.31158" lon="5.83553">
        <ele>1725.3</ele>
        <time>2018-01-18T12:38:35Z</time>
      </trkpt>
      <trkpt lat="45.31138" lon="5.83548">
        <ele>1728.2</ele>
        <time>2018-01-18T12:39:05Z</time>
      </trkpt>
      <trkpt lat="45.31135" lon="5.83547">
        <ele>1728.5</ele>
        <time>2018-01-18T12:39:29Z</time>
      </trkpt>
      <trkpt lat="45.31134" lon="5.83547">
        <ele>1728.6</ele>
        <time>2018-01-18T12:42:22Z</time>
      </trkpt>
      <trkpt lat="45.31134" lon="5.8355">
        <ele>1728.8</ele>
        <time>2018-01-18T12:48:20Z</time>
      </trkpt>
      <trkpt lat="45.31137" lon="5.83546">
        <ele>1729.1</ele>
        <time>2018-01-18T12:51:09Z</time>
      </trkpt>
      <trkpt lat="45.31131" lon="5.83547">
        <ele>1729.2</ele>
        <time>2018-01-18T12:51:33Z</time>
      </trkpt>
      <trkpt lat="45.3113" lon="5.83546">
        <ele>1729.2</ele>
        <time>2018-01-18T12:51:43Z</time>
      </trkpt>
      <trkpt lat="45.31133" lon="5.83547">
        <ele>1729.2</ele>
        <time>2018-01-18T12:52:00Z</time>
      </trkpt>
      <trkpt lat="45.31149" lon="5.83547">
        <ele>1727.9</ele>
        <time>2018-01-18T12:52:11Z</time>
      </trkpt>
      <trkpt lat="45.31173" lon="5.83553">
        <ele>1724.1</ele>
        <time>2018-01-18T12:52:21Z</time>
      </trkpt>
      <trkpt lat="45.31205" lon="5.83564">
        <ele>1718.6</ele>
        <time>2018-01-18T12:52:31Z</time>
      </trkpt>
      <trkpt lat="45.31209" lon="5.83561">
        <ele>1717.9</ele>
        <time>2018-01-18T12:52:44Z</time>
      </trkpt>
      <trkpt lat="45.3122" lon="5.83566">
        <ele>1716.2</ele>
        <time>2018-01-18T12:52:49Z</time>
      </trkpt>
      <trkpt lat="45.31239" lon="5.83575">
        <ele>1713.2</ele>
        <time>2018-01-18T12:52:54Z</time>
      </trkpt>
      <trkpt lat="45.31246" lon="5.83573">
        <ele>1712.5</ele>
        <time>2018-01-18T12:53:20Z</time>
      </trkpt>
      <trkpt lat="45.31245" lon="5.83571">
        <ele>1712.3</ele>
        <time>2018-01-18T12:54:07Z</time>
      </trkpt>
      <trkpt lat="45.31252" lon="5.83559">
        <ele>1711.6</ele>
        <time>2018-01-18T12:54:12Z</time>
      </trkpt>
      <trkpt lat="45.31259" lon="5.83532">
        <ele>1704.7</ele>
        <time>2018-01-18T12:54:17Z</time>
      </trkpt>
      <trkpt lat="45.31293" lon="5.83506">
        <ele>1690.2</ele>
        <time>2018-01-18T12:54:27Z</time>
      </trkpt>
      <trkpt lat="45.31312" lon="5.83499">
        <ele>1685.6</ele>
        <time>2018-01-18T12:54:32Z</time>
      </trkpt>
      <trkpt lat="45.31311" lon="5.83486">
        <ele>1681.6</ele>
        <time>2018-01-18T12:54:37Z</time>
      </trkpt>
      <trkpt lat="45.3131" lon="5.83485">
        <ele>1681</ele>
        <time>2018-01-18T12:54:42Z</time>
      </trkpt>
      <trkpt lat="45.3131" lon="5.83486">
        <ele>1681.3</ele>
        <time>2018-01-18T12:55:00Z</time>
      </trkpt>
      <trkpt lat="45.31311" lon="5.83483">
        <ele>1681</ele>
        <time>2018-01-18T12:55:11Z</time>
      </trkpt>
      <trkpt lat="45.31302" lon="5.83473">
        <ele>1680.2</ele>
        <time>2018-01-18T12:55:16Z</time>
      </trkpt>
      <trkpt lat="45.31285" lon="5.83457">
        <ele>1679</ele>
        <time>2018-01-18T12:55:21Z</time>
      </trkpt>
      <trkpt lat="45.31282" lon="5.83424">
        <ele>1671.7</ele>
        <time>2018-01-18T12:55:26Z</time>
      </trkpt>
      <trkpt lat="45.31294" lon="5.83392">
        <ele>1661.7</ele>
        <time>2018-01-18T12:55:31Z</time>
      </trkpt>
      <trkpt lat="45.31299" lon="5.83392">
        <ele>1660.8</ele>
        <time>2018-01-18T12:55:41Z</time>
      </trkpt>
      <trkpt lat="45.313" lon="5.83394">
        <ele>1661</ele>
        <time>2018-01-18T12:55:56Z</time>
      </trkpt>
      <trkpt lat="45.31316" lon="5.83396">
        <ele>1658.9</ele>
        <time>2018-01-18T12:56:01Z</time>
      </trkpt>
      <trkpt lat="45.31346" lon="5.83397">
        <ele>1653.9</ele>
        <time>2018-01-18T12:56:06Z</time>
      </trkpt>
      <trkpt lat="45.31362" lon="5.8338">
        <ele>1645.8</ele>
        <time>2018-01-18T12:56:11Z</time>
      </trkpt>
      <trkpt lat="45.31374" lon="5.83372">
        <ele>1640.8</ele>
        <time>2018-01-18T12:56:16Z</time>
      </trkpt>
      <trkpt lat="45.31392" lon="5.83369">
        <ele>1636.6</ele>
        <time>2018-01-18T12:56:21Z</time>
      </trkpt>
      <trkpt lat="45.31406" lon="5.83337">
        <ele>1627.8</ele>
        <time>2018-01-18T12:56:26Z</time>
      </trkpt>
      <trkpt lat="45.31434" lon="5.83307">
        <ele>1618</ele>
        <time>2018-01-18T12:56:31Z</time>
      </trkpt>
      <trkpt lat="45.31462" lon="5.83275">
        <ele>1615.6</ele>
        <time>2018-01-18T12:56:36Z</time>
      </trkpt>
      <trkpt lat="45.31479" lon="5.83243">
        <ele>1613.4</ele>
        <time>2018-01-18T12:56:41Z</time>
      </trkpt>
      <trkpt lat="45.31487" lon="5.83229">
        <ele>1612.7</ele>
        <time>2018-01-18T12:56:47Z</time>
      </trkpt>
      <trkpt lat="45.31495" lon="5.83217">
        <ele>1608.4</ele>
        <time>2018-01-18T12:57:04Z</time>
      </trkpt>
      <trkpt lat="45.31501" lon="5.83215">
        <ele>1608.3</ele>
        <time>2018-01-18T12:57:14Z</time>
      </trkpt>
      <trkpt lat="45.31506" lon="5.83214">
        <ele>1608.1</ele>
        <time>2018-01-18T12:57:24Z</time>
      </trkpt>
      <trkpt lat="45.31531" lon="5.83221">
        <ele>1607.5</ele>
        <time>2018-01-18T12:57:58Z</time>
      </trkpt>
      <trkpt lat="45.31535" lon="5.83227">
        <ele>1607.4</ele>
        <time>2018-01-18T12:58:10Z</time>
      </trkpt>
      <trkpt lat="45.31529" lon="5.83237">
        <ele>1607.2</ele>
        <time>2018-01-18T12:58:22Z</time>
      </trkpt>
      <trkpt lat="45.31524" lon="5.83238">
        <ele>1607</ele>
        <time>2018-01-18T12:58:41Z</time>
      </trkpt>
      <trkpt lat="45.31523" lon="5.83239">
        <ele>1607</ele>
        <time>2018-01-18T12:58:58Z</time>
      </trkpt>
      <trkpt lat="45.31521" lon="5.83238">
        <ele>1607</ele>
        <time>2018-01-18T12:59:37Z</time>
      </trkpt>
      <trkpt lat="45.31519" lon="5.83233">
        <ele>1606.9</ele>
        <time>2018-01-18T12:59:52Z</time>
      </trkpt>
      <trkpt lat="45.31529" lon="5.83229">
        <ele>1606.6</ele>
        <time>2018-01-18T13:00:12Z</time>
      </trkpt>
      <trkpt lat="45.31534" lon="5.83231">
        <ele>1606.5</ele>
        <time>2018-01-18T13:00:32Z</time>
      </trkpt>
      <trkpt lat="45.31531" lon="5.83223">
        <ele>1606.3</ele>
        <time>2018-01-18T13:01:02Z</time>
      </trkpt>
      <trkpt lat="45.31523" lon="5.83217">
        <ele>1606.1</ele>
        <time>2018-01-18T13:01:23Z</time>
      </trkpt>
      <trkpt lat="45.31535" lon="5.8323">
        <ele>1605.7</ele>
        <time>2018-01-18T13:02:18Z</time>
      </trkpt>
      <trkpt lat="45.3153" lon="5.83225">
        <ele>1605.6</ele>
        <time>2018-01-18T13:02:44Z</time>
      </trkpt>
      <trkpt lat="45.31524" lon="5.83224">
        <ele>1605.4</ele>
        <time>2018-01-18T13:03:13Z</time>
      </trkpt>
      <trkpt lat="45.31512" lon="5.83214">
        <ele>1605.1</ele>
        <time>2018-01-18T13:04:57Z</time>
      </trkpt>
      <trkpt lat="45.31524" lon="5.83203">
        <ele>1604.8</ele>
        <time>2018-01-18T13:05:54Z</time>
      </trkpt>
      <trkpt lat="45.31525" lon="5.83198">
        <ele>1604.7</ele>
        <time>2018-01-18T13:06:23Z</time>
      </trkpt>
      <trkpt lat="45.3152" lon="5.83196">
        <ele>1604.6</ele>
        <time>2018-01-18T13:29:33Z</time>
      </trkpt>
      <trkpt lat="45.31521" lon="5.8321">
        <ele>1604.3</ele>
        <time>2018-01-18T13:29:38Z</time>
      </trkpt>
      <trkpt lat="45.31527" lon="5.8321">
        <ele>1604.2</ele>
        <time>2018-01-18T13:29:56Z</time>
      </trkpt>
      <trkpt lat="45.31521" lon="5.83216">
        <ele>1604</ele>
        <time>2018-01-18T13:30:23Z</time>
      </trkpt>
      <trkpt lat="45.31521" lon="5.83217">
        <ele>1604</ele>
        <time>2018-01-18T13:30:30Z</time>
      </trkpt>
      <trkpt lat="45.31524" lon="5.83223">
        <ele>1603.9</ele>
        <time>2018-01-18T13:30:44Z</time>
      </trkpt>
      <trkpt lat="45.31524" lon="5.83213">
        <ele>1603.7</ele>
        <time>2018-01-18T13:30:54Z</time>
      </trkpt>
      <trkpt lat="45.31517" lon="5.83212">
        <ele>1603.5</ele>
        <time>2018-01-18T13:31:10Z</time>
      </trkpt>
      <trkpt lat="45.3152" lon="5.83216">
        <ele>1603.4</ele>
        <time>2018-01-18T13:31:15Z</time>
      </trkpt>
      <trkpt lat="45.31518" lon="5.83224">
        <ele>1603.3</ele>
        <time>2018-01-18T13:31:22Z</time>
      </trkpt>
      <trkpt lat="45.31522" lon="5.83226">
        <ele>1603.2</ele>
        <time>2018-01-18T13:31:27Z</time>
      </trkpt>
      <trkpt lat="45.31517" lon="5.83228">
        <ele>1603.1</ele>
        <time>2018-01-18T13:31:32Z</time>
      </trkpt>
      <trkpt lat="45.31515" lon="5.83225">
        <ele>1603</ele>
        <time>2018-01-18T13:31:37Z</time>
      </trkpt>
      <trkpt lat="45.3152" lon="5.83228">
        <ele>1602.9</ele>
        <time>2018-01-18T13:31:42Z</time>
      </trkpt>
      <trkpt lat="45.31521" lon="5.8322">
        <ele>1602.7</ele>
        <time>2018-01-18T13:31:47Z</time>
      </trkpt>
      <trkpt lat="45.31532" lon="5.83222">
        <ele>1602.4</ele>
        <time>2018-01-18T13:32:28Z</time>
      </trkpt>
      <trkpt lat="45.3153" lon="5.83226">
        <ele>1602.3</ele>
        <time>2018-01-18T13:32:35Z</time>
      </trkpt>
      <trkpt lat="45.31526" lon="5.83226">
        <ele>1602.2</ele>
        <time>2018-01-18T13:32:41Z</time>
      </trkpt>
      <trkpt lat="45.31523" lon="5.83237">
        <ele>1602.1</ele>
        <time>2018-01-18T13:36:10Z</time>
      </trkpt>
      <trkpt lat="45.31519" lon="5.83234">
        <ele>1601.7</ele>
        <time>2018-01-18T13:36:26Z</time>
      </trkpt>
      <trkpt lat="45.31523" lon="5.83236">
        <ele>1602</ele>
        <time>2018-01-18T13:36:51Z</time>
      </trkpt>
      <trkpt lat="45.31522" lon="5.83239">
        <ele>1602.5</ele>
        <time>2018-01-18T13:37:21Z</time>
      </trkpt>
      <trkpt lat="45.31502" lon="5.83283">
        <ele>1604.4</ele>
        <time>2018-01-18T13:37:48Z</time>
      </trkpt>
      <trkpt lat="45.31481" lon="5.83328">
        <ele>1609.9</ele>
        <time>2018-01-18T13:38:44Z</time>
      </trkpt>
      <trkpt lat="45.31444" lon="5.8338">
        <ele>1625.7</ele>
        <time>2018-01-18T13:40:04Z</time>
      </trkpt>
      <trkpt lat="45.31437" lon="5.83391">
        <ele>1631.1</ele>
        <time>2018-01-18T13:40:26Z</time>
      </trkpt>
      <trkpt lat="45.31436" lon="5.83394">
        <ele>1631.2</ele>
        <time>2018-01-18T13:40:35Z</time>
      </trkpt>
      <trkpt lat="45.31452" lon="5.83403">
        <ele>1633.2</ele>
        <time>2018-01-18T13:41:11Z</time>
      </trkpt>
      <trkpt lat="45.31463" lon="5.8341">
        <ele>1635.6</ele>
        <time>2018-01-18T13:41:40Z</time>
      </trkpt>
      <trkpt lat="45.31433" lon="5.83431">
        <ele>1645.4</ele>
        <time>2018-01-18T13:42:34Z</time>
      </trkpt>
      <trkpt lat="45.31417" lon="5.83437">
        <ele>1648</ele>
        <time>2018-01-18T13:43:11Z</time>
      </trkpt>
      <trkpt lat="45.31418" lon="5.83438">
        <ele>1648.1</ele>
        <time>2018-01-18T13:43:20Z</time>
      </trkpt>
      <trkpt lat="45.31433" lon="5.83448">
        <ele>1652.6</ele>
        <time>2018-01-18T13:43:50Z</time>
      </trkpt>
      <trkpt lat="45.31444" lon="5.83454">
        <ele>1654</ele>
        <time>2018-01-18T13:44:14Z</time>
      </trkpt>
      <trkpt lat="45.31448" lon="5.83456">
        <ele>1655.8</ele>
        <time>2018-01-18T13:44:40Z</time>
      </trkpt>
      <trkpt lat="45.31449" lon="5.83457">
        <ele>1656</ele>
        <time>2018-01-18T13:45:06Z</time>
      </trkpt>
      <trkpt lat="45.31466" lon="5.83464">
        <ele>1657.9</ele>
        <time>2018-01-18T13:45:42Z</time>
      </trkpt>
      <trkpt lat="45.31448" lon="5.83479">
        <ele>1665.1</ele>
        <time>2018-01-18T13:49:13Z</time>
      </trkpt>
      <trkpt lat="45.3145" lon="5.83484">
        <ele>1667.2</ele>
        <time>2018-01-18T13:49:51Z</time>
      </trkpt>
      <trkpt lat="45.31447" lon="5.83486">
        <ele>1669</ele>
        <time>2018-01-18T13:50:07Z</time>
      </trkpt>
      <trkpt lat="45.31446" lon="5.83486">
        <ele>1669</ele>
        <time>2018-01-18T13:51:05Z</time>
      </trkpt>
      <trkpt lat="45.31447" lon="5.83488">
        <ele>1669.3</ele>
        <time>2018-01-18T13:51:22Z</time>
      </trkpt>
      <trkpt lat="45.3145" lon="5.83498">
        <ele>1673</ele>
        <time>2018-01-18T13:51:37Z</time>
      </trkpt>
      <trkpt lat="45.31448" lon="5.83501">
        <ele>1674.5</ele>
        <time>2018-01-18T13:51:43Z</time>
      </trkpt>
      <trkpt lat="45.31445" lon="5.83504">
        <ele>1675.9</ele>
        <time>2018-01-18T13:51:49Z</time>
      </trkpt>
      <trkpt lat="45.31447" lon="5.83518">
        <ele>1680.6</ele>
        <time>2018-01-18T13:52:11Z</time>
      </trkpt>
      <trkpt lat="45.31441" lon="5.83531">
        <ele>1684.2</ele>
        <time>2018-01-18T13:52:33Z</time>
      </trkpt>
      <trkpt lat="45.31442" lon="5.8353">
        <ele>1684.4</ele>
        <time>2018-01-18T13:53:10Z</time>
      </trkpt>
      <trkpt lat="45.31442" lon="5.83531">
        <ele>1684.6</ele>
        <time>2018-01-18T13:53:15Z</time>
      </trkpt>
      <trkpt lat="45.31438" lon="5.83534">
        <ele>1685.6</ele>
        <time>2018-01-18T13:53:21Z</time>
      </trkpt>
      <trkpt lat="45.31434" lon="5.83536">
        <ele>1685</ele>
        <time>2018-01-18T13:53:43Z</time>
      </trkpt>
      <trkpt lat="45.31412" lon="5.8354">
        <ele>1684.8</ele>
        <time>2018-01-18T13:54:19Z</time>
      </trkpt>
      <trkpt lat="45.314" lon="5.83539">
        <ele>1684.8</ele>
        <time>2018-01-18T13:54:40Z</time>
      </trkpt>
      <trkpt lat="45.3139" lon="5.83533">
        <ele>1683.1</ele>
        <time>2018-01-18T13:55:04Z</time>
      </trkpt>
      <trkpt lat="45.31379" lon="5.83534">
        <ele>1685.1</ele>
        <time>2018-01-18T13:55:23Z</time>
      </trkpt>
      <trkpt lat="45.31372" lon="5.83539">
        <ele>1686.8</ele>
        <time>2018-01-18T13:55:36Z</time>
      </trkpt>
      <trkpt lat="45.31361" lon="5.83557">
        <ele>1691.7</ele>
        <time>2018-01-18T13:56:06Z</time>
      </trkpt>
      <trkpt lat="45.31355" lon="5.83559">
        <ele>1693.5</ele>
        <time>2018-01-18T13:56:18Z</time>
      </trkpt>
      <trkpt lat="45.31334" lon="5.83564">
        <ele>1698.8</ele>
        <time>2018-01-18T13:56:53Z</time>
      </trkpt>
      <trkpt lat="45.31316" lon="5.83568">
        <ele>1703.4</ele>
        <time>2018-01-18T13:57:23Z</time>
      </trkpt>
      <trkpt lat="45.31299" lon="5.8357">
        <ele>1706.6</ele>
        <time>2018-01-18T13:57:53Z</time>
      </trkpt>
      <trkpt lat="45.31301" lon="5.83581">
        <ele>1708.5</ele>
        <time>2018-01-18T13:58:15Z</time>
      </trkpt>
      <trkpt lat="45.31292" lon="5.83585">
        <ele>1709.3</ele>
        <time>2018-01-18T13:58:32Z</time>
      </trkpt>
      <trkpt lat="45.31282" lon="5.83588">
        <ele>1710</ele>
        <time>2018-01-18T13:58:49Z</time>
      </trkpt>
      <trkpt lat="45.31278" lon="5.83588">
        <ele>1710.3</ele>
        <time>2018-01-18T13:58:55Z</time>
      </trkpt>
      <trkpt lat="45.31246" lon="5.8358">
        <ele>1712</ele>
        <time>2018-01-18T13:59:37Z</time>
      </trkpt>
      <trkpt lat="45.31223" lon="5.83572">
        <ele>1715</ele>
        <time>2018-01-18T14:00:07Z</time>
      </trkpt>
      <trkpt lat="45.31187" lon="5.83559">
        <ele>1721</ele>
        <time>2018-01-18T14:01:01Z</time>
      </trkpt>
      <trkpt lat="45.31177" lon="5.83555">
        <ele>1723</ele>
        <time>2018-01-18T14:01:17Z</time>
      </trkpt>
      <trkpt lat="45.31168" lon="5.83553">
        <ele>1724.7</ele>
        <time>2018-01-18T14:01:29Z</time>
      </trkpt>
      <trkpt lat="45.31155" lon="5.83551">
        <ele>1727.1</ele>
        <time>2018-01-18T14:01:47Z</time>
      </trkpt>
      <trkpt lat="45.31142" lon="5.83549">
        <ele>1728.7</ele>
        <time>2018-01-18T14:02:05Z</time>
      </trkpt>
      <trkpt lat="45.31139" lon="5.83549">
        <ele>1729.1</ele>
        <time>2018-01-18T14:03:53Z</time>
      </trkpt>
      <trkpt lat="45.31138" lon="5.83548">
        <ele>1729.1</ele>
        <time>2018-01-18T14:12:46Z</time>
      </trkpt>
      <trkpt lat="45.31139" lon="5.83548">
        <ele>1729</ele>
        <time>2018-01-18T14:13:16Z</time>
      </trkpt>
      <trkpt lat="45.31154" lon="5.83549">
        <ele>1727.3</ele>
        <time>2018-01-18T14:13:27Z</time>
      </trkpt>
      <trkpt lat="45.31157" lon="5.8355">
        <ele>1726.9</ele>
        <time>2018-01-18T14:13:48Z</time>
      </trkpt>
      <trkpt lat="45.31158" lon="5.8355">
        <ele>1726.7</ele>
        <time>2018-01-18T14:13:53Z</time>
      </trkpt>
      <trkpt lat="45.31163" lon="5.83551">
        <ele>1725.8</ele>
        <time>2018-01-18T14:13:58Z</time>
      </trkpt>
      <trkpt lat="45.31167" lon="5.8355">
        <ele>1725</ele>
        <time>2018-01-18T14:14:18Z</time>
      </trkpt>
      <trkpt lat="45.31167" lon="5.83525">
        <ele>1722.4</ele>
        <time>2018-01-18T14:14:23Z</time>
      </trkpt>
      <trkpt lat="45.31193" lon="5.83495">
        <ele>1707.9</ele>
        <time>2018-01-18T14:14:33Z</time>
      </trkpt>
      <trkpt lat="45.31195" lon="5.83479">
        <ele>1701.4</ele>
        <time>2018-01-18T14:14:38Z</time>
      </trkpt>
      <trkpt lat="45.31189" lon="5.8347">
        <ele>1700.7</ele>
        <time>2018-01-18T14:14:43Z</time>
      </trkpt>
      <trkpt lat="45.31186" lon="5.83464">
        <ele>1700</ele>
        <time>2018-01-18T14:15:18Z</time>
      </trkpt>
      <trkpt lat="45.31179" lon="5.83446">
        <ele>1694.9</ele>
        <time>2018-01-18T14:15:23Z</time>
      </trkpt>
      <trkpt lat="45.31187" lon="5.83434">
        <ele>1688</ele>
        <time>2018-01-18T14:15:28Z</time>
      </trkpt>
      <trkpt lat="45.31189" lon="5.83418">
        <ele>1682.6</ele>
        <time>2018-01-18T14:15:33Z</time>
      </trkpt>
      <trkpt lat="45.31197" lon="5.83399">
        <ele>1672.6</ele>
        <time>2018-01-18T14:15:38Z</time>
      </trkpt>
      <trkpt lat="45.31212" lon="5.83373">
        <ele>1660.2</ele>
        <time>2018-01-18T14:15:43Z</time>
      </trkpt>
      <trkpt lat="45.3122" lon="5.83335">
        <ele>1648.2</ele>
        <time>2018-01-18T14:15:48Z</time>
      </trkpt>
      <trkpt lat="45.31209" lon="5.83286">
        <ele>1639.9</ele>
        <time>2018-01-18T14:15:53Z</time>
      </trkpt>
      <trkpt lat="45.31188" lon="5.83281">
        <ele>1641</ele>
        <time>2018-01-18T14:15:59Z</time>
      </trkpt>
      <trkpt lat="45.31187" lon="5.83283">
        <ele>1640.6</ele>
        <time>2018-01-18T14:16:29Z</time>
      </trkpt>
      <trkpt lat="45.31183" lon="5.83278">
        <ele>1639.8</ele>
        <time>2018-01-18T14:16:34Z</time>
      </trkpt>
      <trkpt lat="45.31168" lon="5.8326">
        <ele>1637</ele>
        <time>2018-01-18T14:16:39Z</time>
      </trkpt>
      <trkpt lat="45.31131" lon="5.83171">
        <ele>1610.7</ele>
        <time>2018-01-18T14:16:49Z</time>
      </trkpt>
      <trkpt lat="45.3111" lon="5.83132">
        <ele>1594.8</ele>
        <time>2018-01-18T14:16:54Z</time>
      </trkpt>
      <trkpt lat="45.31094" lon="5.83083">
        <ele>1580.9</ele>
        <time>2018-01-18T14:16:59Z</time>
      </trkpt>
      <trkpt lat="45.31085" lon="5.83035">
        <ele>1569.5</ele>
        <time>2018-01-18T14:17:04Z</time>
      </trkpt>
      <trkpt lat="45.31069" lon="5.82952">
        <ele>1547</ele>
        <time>2018-01-18T14:17:14Z</time>
      </trkpt>
      <trkpt lat="45.31029" lon="5.82871">
        <ele>1528.8</ele>
        <time>2018-01-18T14:17:24Z</time>
      </trkpt>
      <trkpt lat="45.31008" lon="5.82828">
        <ele>1520.3</ele>
        <time>2018-01-18T14:17:29Z</time>
      </trkpt>
      <trkpt lat="45.30973" lon="5.8273">
        <ele>1507.1</ele>
        <time>2018-01-18T14:17:39Z</time>
      </trkpt>
      <trkpt lat="45.30958" lon="5.82697">
        <ele>1502.9</ele>
        <time>2018-01-18T14:17:44Z</time>
      </trkpt>
      <trkpt lat="45.30957" lon="5.82701">
        <ele>1502.4</ele>
        <time>2018-01-18T14:17:49Z</time>
      </trkpt>
      <trkpt lat="45.30958" lon="5.82705">
        <ele>1501.7</ele>
        <time>2018-01-18T14:18:21Z</time>
      </trkpt>
      <trkpt lat="45.30958" lon="5.82704">
        <ele>1501.4</ele>
        <time>2018-01-18T14:18:36Z</time>
      </trkpt>
      <trkpt lat="45.30942" lon="5.82694">
        <ele>1497.8</ele>
        <time>2018-01-18T14:18:41Z</time>
      </trkpt>
      <trkpt lat="45.30922" lon="5.82669">
        <ele>1490.3</ele>
        <time>2018-01-18T14:18:46Z</time>
      </trkpt>
      <trkpt lat="45.30907" lon="5.82639">
        <ele>1482.8</ele>
        <time>2018-01-18T14:18:51Z</time>
      </trkpt>
      <trkpt lat="45.30885" lon="5.82613">
        <ele>1472.2</ele>
        <time>2018-01-18T14:18:56Z</time>
      </trkpt>
      <trkpt lat="45.30861" lon="5.82592">
        <ele>1459.9</ele>
        <time>2018-01-18T14:19:01Z</time>
      </trkpt>
      <trkpt lat="45.3082" lon="5.82655">
        <ele>1447.5</ele>
        <time>2018-01-18T14:19:11Z</time>
      </trkpt>
      <trkpt lat="45.30797" lon="5.82695">
        <ele>1439.7</ele>
        <time>2018-01-18T14:19:16Z</time>
      </trkpt>
      <trkpt lat="45.3077" lon="5.82728">
        <ele>1430.7</ele>
        <time>2018-01-18T14:19:21Z</time>
      </trkpt>
      <trkpt lat="45.30749" lon="5.82769">
        <ele>1427.9</ele>
        <time>2018-01-18T14:19:26Z</time>
      </trkpt>
      <trkpt lat="45.30734" lon="5.82818">
        <ele>1429.1</ele>
        <time>2018-01-18T14:19:31Z</time>
      </trkpt>
      <trkpt lat="45.30712" lon="5.82852">
        <ele>1426.8</ele>
        <time>2018-01-18T14:19:36Z</time>
      </trkpt>
      <trkpt lat="45.30665" lon="5.82922">
        <ele>1415.3</ele>
        <time>2018-01-18T14:19:46Z</time>
      </trkpt>
      <trkpt lat="45.30627" lon="5.83004">
        <ele>1406.8</ele>
        <time>2018-01-18T14:19:56Z</time>
      </trkpt>
      <trkpt lat="45.306" lon="5.83082">
        <ele>1403.5</ele>
        <time>2018-01-18T14:20:06Z</time>
      </trkpt>
      <trkpt lat="45.3058" lon="5.83112">
        <ele>1399.8</ele>
        <time>2018-01-18T14:20:11Z</time>
      </trkpt>
      <trkpt lat="45.30562" lon="5.83142">
        <ele>1399.5</ele>
        <time>2018-01-18T14:20:16Z</time>
      </trkpt>
      <trkpt lat="45.3052" lon="5.83187">
        <ele>1394.1</ele>
        <time>2018-01-18T14:20:26Z</time>
      </trkpt>
      <trkpt lat="45.30499" lon="5.83206">
        <ele>1389.9</ele>
        <time>2018-01-18T14:20:31Z</time>
      </trkpt>
      <trkpt lat="45.30496" lon="5.83206">
        <ele>1389.3</ele>
        <time>2018-01-18T14:21:39Z</time>
      </trkpt>
      <trkpt lat="45.30497" lon="5.83205">
        <ele>1389</ele>
        <time>2018-01-18T14:22:52Z</time>
      </trkpt>
      <trkpt lat="45.30494" lon="5.83186">
        <ele>1388.5</ele>
        <time>2018-01-18T14:22:57Z</time>
      </trkpt>
      <trkpt lat="45.30481" lon="5.83159">
        <ele>1385.5</ele>
        <time>2018-01-18T14:23:02Z</time>
      </trkpt>
      <trkpt lat="45.30423" lon="5.83068">
        <ele>1356.9</ele>
        <time>2018-01-18T14:23:17Z</time>
      </trkpt>
      <trkpt lat="45.30415" lon="5.8305">
        <ele>1354.4</ele>
        <time>2018-01-18T14:23:40Z</time>
      </trkpt>
      <trkpt lat="45.30414" lon="5.8305">
        <ele>1354.4</ele>
        <time>2018-01-18T14:23:46Z</time>
      </trkpt>
      <trkpt lat="45.30418" lon="5.83053">
        <ele>1356.1</ele>
        <time>2018-01-18T14:27:12Z</time>
      </trkpt>
      <trkpt lat="45.30416" lon="5.83052">
        <ele>1355.6</ele>
        <time>2018-01-18T14:28:31Z</time>
      </trkpt>
      <trkpt lat="45.30415" lon="5.83051">
        <ele>1356</ele>
        <time>2018-01-18T14:29:58Z</time>
      </trkpt>
      <trkpt lat="45.30408" lon="5.83067">
        <ele>1357.4</ele>
        <time>2018-01-18T14:30:18Z</time>
      </trkpt>
      <trkpt lat="45.30398" lon="5.8312">
        <ele>1362.9</ele>
        <time>2018-01-18T14:30:56Z</time>
      </trkpt>
      <trkpt lat="45.30395" lon="5.83128">
        <ele>1364</ele>
        <time>2018-01-18T14:31:02Z</time>
      </trkpt>
      <trkpt lat="45.3036" lon="5.8321">
        <ele>1373.6</ele>
        <time>2018-01-18T14:32:11Z</time>
      </trkpt>
      <trkpt lat="45.30351" lon="5.83233">
        <ele>1379.1</ele>
        <time>2018-01-18T14:32:29Z</time>
      </trkpt>
      <trkpt lat="45.30336" lon="5.83275">
        <ele>1386.6</ele>
        <time>2018-01-18T14:33:11Z</time>
      </trkpt>
      <trkpt lat="45.30333" lon="5.83281">
        <ele>1388.4</ele>
        <time>2018-01-18T14:33:17Z</time>
      </trkpt>
      <trkpt lat="45.30309" lon="5.8331">
        <ele>1393.3</ele>
        <time>2018-01-18T14:33:53Z</time>
      </trkpt>
      <trkpt lat="45.3029" lon="5.83319">
        <ele>1395.6</ele>
        <time>2018-01-18T14:34:23Z</time>
      </trkpt>
      <trkpt lat="45.30279" lon="5.83325">
        <ele>1397</ele>
        <time>2018-01-18T14:34:40Z</time>
      </trkpt>
      <trkpt lat="45.30261" lon="5.83358">
        <ele>1402.5</ele>
        <time>2018-01-18T14:35:16Z</time>
      </trkpt>
      <trkpt lat="45.30247" lon="5.83375">
        <ele>1406</ele>
        <time>2018-01-18T14:35:39Z</time>
      </trkpt>
      <trkpt lat="45.30236" lon="5.83383">
        <ele>1408.3</ele>
        <time>2018-01-18T14:35:57Z</time>
      </trkpt>
      <trkpt lat="45.30232" lon="5.83414">
        <ele>1412.7</ele>
        <time>2018-01-18T14:36:27Z</time>
      </trkpt>
      <trkpt lat="45.30234" lon="5.83452">
        <ele>1418.1</ele>
        <time>2018-01-18T14:37:03Z</time>
      </trkpt>
      <trkpt lat="45.30232" lon="5.83493">
        <ele>1424.1</ele>
        <time>2018-01-18T14:37:39Z</time>
      </trkpt>
      <trkpt lat="45.30233" lon="5.83524">
        <ele>1430.1</ele>
        <time>2018-01-18T14:38:09Z</time>
      </trkpt>
      <trkpt lat="45.30233" lon="5.83536">
        <ele>1429.6</ele>
        <time>2018-01-18T14:38:21Z</time>
      </trkpt>
      <trkpt lat="45.3024" lon="5.83548">
        <ele>1429.1</ele>
        <time>2018-01-18T14:38:38Z</time>
      </trkpt>
      <trkpt lat="45.30244" lon="5.83555">
        <ele>1429</ele>
        <time>2018-01-18T14:38:52Z</time>
      </trkpt>
      <trkpt lat="45.30267" lon="5.83554">
        <ele>1426.1</ele>
        <time>2018-01-18T14:39:21Z</time>
      </trkpt>
      <trkpt lat="45.30275" lon="5.83558">
        <ele>1424.8</ele>
        <time>2018-01-18T14:39:32Z</time>
      </trkpt>
      <trkpt lat="45.30272" lon="5.83568">
        <ele>1430.2</ele>
        <time>2018-01-18T14:40:01Z</time>
      </trkpt>
      <trkpt lat="45.30261" lon="5.8359">
        <ele>1437.2</ele>
        <time>2018-01-18T14:40:35Z</time>
      </trkpt>
      <trkpt lat="45.30272" lon="5.83592">
        <ele>1436.8</ele>
        <time>2018-01-18T14:40:55Z</time>
      </trkpt>
      <trkpt lat="45.30269" lon="5.83601">
        <ele>1436.4</ele>
        <time>2018-01-18T14:41:06Z</time>
      </trkpt>
      <trkpt lat="45.3027" lon="5.83606">
        <ele>1436.2</ele>
        <time>2018-01-18T14:41:13Z</time>
      </trkpt>
      <trkpt lat="45.3028" lon="5.83609">
        <ele>1439.7</ele>
        <time>2018-01-18T14:41:25Z</time>
      </trkpt>
      <trkpt lat="45.30282" lon="5.83616">
        <ele>1441.1</ele>
        <time>2018-01-18T14:41:31Z</time>
      </trkpt>
      <trkpt lat="45.30278" lon="5.83629">
        <ele>1443.6</ele>
        <time>2018-01-18T14:41:43Z</time>
      </trkpt>
      <trkpt lat="45.30274" lon="5.83636">
        <ele>1445</ele>
        <time>2018-01-18T14:41:49Z</time>
      </trkpt>
      <trkpt lat="45.30266" lon="5.83649">
        <ele>1448.9</ele>
        <time>2018-01-18T14:42:01Z</time>
      </trkpt>
      <trkpt lat="45.30254" lon="5.83671">
        <ele>1455.1</ele>
        <time>2018-01-18T14:42:19Z</time>
      </trkpt>
      <trkpt lat="45.30251" lon="5.83678">
        <ele>1455.7</ele>
        <time>2018-01-18T14:42:24Z</time>
      </trkpt>
      <trkpt lat="45.30249" lon="5.83685">
        <ele>1456.4</ele>
        <time>2018-01-18T14:42:30Z</time>
      </trkpt>
      <trkpt lat="45.30255" lon="5.83689">
        <ele>1457.2</ele>
        <time>2018-01-18T14:42:40Z</time>
      </trkpt>
      <trkpt lat="45.30254" lon="5.83687">
        <ele>1457.3</ele>
        <time>2018-01-18T14:43:19Z</time>
      </trkpt>
      <trkpt lat="45.30245" lon="5.83688">
        <ele>1458.5</ele>
        <time>2018-01-18T14:44:08Z</time>
      </trkpt>
      <trkpt lat="45.30246" lon="5.83688">
        <ele>1458.6</ele>
        <time>2018-01-18T14:44:50Z</time>
      </trkpt>
      <trkpt lat="45.30244" lon="5.83691">
        <ele>1458.9</ele>
        <time>2018-01-18T14:47:17Z</time>
      </trkpt>
      <trkpt lat="45.30247" lon="5.8369">
        <ele>1459.2</ele>
        <time>2018-01-18T14:47:59Z</time>
      </trkpt>
      <trkpt lat="45.30244" lon="5.83693">
        <ele>1459.6</ele>
        <time>2018-01-18T14:48:28Z</time>
      </trkpt>
      <trkpt lat="45.30242" lon="5.83691">
        <ele>1459.9</ele>
        <time>2018-01-18T14:48:59Z</time>
      </trkpt>
      <trkpt lat="45.30245" lon="5.8369">
        <ele>1460</ele>
        <time>2018-01-18T14:49:40Z</time>
      </trkpt>
      <trkpt lat="45.30252" lon="5.8369">
        <ele>1460</ele>
        <time>2018-01-18T14:50:01Z</time>
      </trkpt>
      <trkpt lat="45.30245" lon="5.83691">
        <ele>1460</ele>
        <time>2018-01-18T14:51:08Z</time>
      </trkpt>
      <trkpt lat="45.30246" lon="5.83691">
        <ele>1459.8</ele>
        <time>2018-01-18T14:51:45Z</time>
      </trkpt>
      <trkpt lat="45.30249" lon="5.83698">
        <ele>1459</ele>
        <time>2018-01-18T14:51:50Z</time>
      </trkpt>
      <trkpt lat="45.30253" lon="5.83706">
        <ele>1458.4</ele>
        <time>2018-01-18T14:52:40Z</time>
      </trkpt>
      <trkpt lat="45.30255" lon="5.83709">
        <ele>1458.1</ele>
        <time>2018-01-18T14:52:46Z</time>
      </trkpt>
      <trkpt lat="45.30265" lon="5.83739">
        <ele>1451.4</ele>
        <time>2018-01-18T14:52:56Z</time>
      </trkpt>
      <trkpt lat="45.30264" lon="5.83743">
        <ele>1447.1</ele>
        <time>2018-01-18T14:53:01Z</time>
      </trkpt>
      <trkpt lat="45.30268" lon="5.83756">
        <ele>1439.6</ele>
        <time>2018-01-18T14:53:06Z</time>
      </trkpt>
      <trkpt lat="45.30278" lon="5.8378">
        <ele>1431.2</ele>
        <time>2018-01-18T14:53:11Z</time>
      </trkpt>
      <trkpt lat="45.30283" lon="5.83791">
        <ele>1424.8</ele>
        <time>2018-01-18T14:53:18Z</time>
      </trkpt>
      <trkpt lat="45.30283" lon="5.83792">
        <ele>1421.3</ele>
        <time>2018-01-18T14:53:23Z</time>
      </trkpt>
      <trkpt lat="45.30285" lon="5.83794">
        <ele>1418.2</ele>
        <time>2018-01-18T14:53:39Z</time>
      </trkpt>
      <trkpt lat="45.30285" lon="5.83798">
        <ele>1413.3</ele>
        <time>2018-01-18T14:53:47Z</time>
      </trkpt>
      <trkpt lat="45.303" lon="5.83843">
        <ele>1396.3</ele>
        <time>2018-01-18T14:54:02Z</time>
      </trkpt>
      <trkpt lat="45.303" lon="5.83857">
        <ele>1388.3</ele>
        <time>2018-01-18T14:54:07Z</time>
      </trkpt>
      <trkpt lat="45.30312" lon="5.83893">
        <ele>1374.5</ele>
        <time>2018-01-18T14:54:17Z</time>
      </trkpt>
      <trkpt lat="45.30309" lon="5.83898">
        <ele>1374.4</ele>
        <time>2018-01-18T14:54:22Z</time>
      </trkpt>
      <trkpt lat="45.30312" lon="5.83918">
        <ele>1374.1</ele>
        <time>2018-01-18T14:54:27Z</time>
      </trkpt>
      <trkpt lat="45.30317" lon="5.83924">
        <ele>1374</ele>
        <time>2018-01-18T14:54:33Z</time>
      </trkpt>
      <trkpt lat="45.30315" lon="5.83924">
        <ele>1373.9</ele>
        <time>2018-01-18T14:54:48Z</time>
      </trkpt>
      <trkpt lat="45.30316" lon="5.83925">
        <ele>1373.9</ele>
        <time>2018-01-18T14:55:16Z</time>
      </trkpt>
      <trkpt lat="45.30315" lon="5.83925">
        <ele>1373.9</ele>
        <time>2018-01-18T14:55:28Z</time>
      </trkpt>
      <trkpt lat="45.3032" lon="5.83928">
        <ele>1373.7</ele>
        <time>2018-01-18T14:55:40Z</time>
      </trkpt>
      <trkpt lat="45.30315" lon="5.83929">
        <ele>1373.7</ele>
        <time>2018-01-18T14:56:01Z</time>
      </trkpt>
      <trkpt lat="45.30312" lon="5.83926">
        <ele>1373.6</ele>
        <time>2018-01-18T14:56:12Z</time>
      </trkpt>
      <trkpt lat="45.30311" lon="5.83925">
        <ele>1373.5</ele>
        <time>2018-01-18T14:56:18Z</time>
      </trkpt>
      <trkpt lat="45.30309" lon="5.83927">
        <ele>1373.5</ele>
        <time>2018-01-18T14:56:26Z</time>
      </trkpt>
      <trkpt lat="45.30288" lon="5.83944">
        <ele>1364.5</ele>
        <time>2018-01-18T14:56:36Z</time>
      </trkpt>
      <trkpt lat="45.30286" lon="5.83965">
        <ele>1360.8</ele>
        <time>2018-01-18T14:56:41Z</time>
      </trkpt>
      <trkpt lat="45.30282" lon="5.83968">
        <ele>1360.7</ele>
        <time>2018-01-18T14:56:47Z</time>
      </trkpt>
      <trkpt lat="45.30277" lon="5.83977">
        <ele>1360.5</ele>
        <time>2018-01-18T14:56:52Z</time>
      </trkpt>
      <trkpt lat="45.30273" lon="5.83983">
        <ele>1360.4</ele>
        <time>2018-01-18T14:57:02Z</time>
      </trkpt>
      <trkpt lat="45.30266" lon="5.83988">
        <ele>1360.2</ele>
        <time>2018-01-18T14:57:07Z</time>
      </trkpt>
      <trkpt lat="45.3025" lon="5.84016">
        <ele>1350.2</ele>
        <time>2018-01-18T14:57:18Z</time>
      </trkpt>
      <trkpt lat="45.30253" lon="5.84023">
        <ele>1347.5</ele>
        <time>2018-01-18T14:57:23Z</time>
      </trkpt>
      <trkpt lat="45.30253" lon="5.84025">
        <ele>1344.9</ele>
        <time>2018-01-18T14:57:28Z</time>
      </trkpt>
      <trkpt lat="45.30243" lon="5.84026">
        <ele>1339.5</ele>
        <time>2018-01-18T14:57:33Z</time>
      </trkpt>
      <trkpt lat="45.3023" lon="5.8402">
        <ele>1334</ele>
        <time>2018-01-18T14:57:38Z</time>
      </trkpt>
      <trkpt lat="45.30226" lon="5.84012">
        <ele>1330.8</ele>
        <time>2018-01-18T14:57:43Z</time>
      </trkpt>
      <trkpt lat="45.30217" lon="5.83998">
        <ele>1327.4</ele>
        <time>2018-01-18T14:57:48Z</time>
      </trkpt>
      <trkpt lat="45.30217" lon="5.84019">
        <ele>1325.9</ele>
        <time>2018-01-18T14:57:53Z</time>
      </trkpt>
      <trkpt lat="45.30227" lon="5.84056">
        <ele>1322.4</ele>
        <time>2018-01-18T14:58:09Z</time>
      </trkpt>
      <trkpt lat="45.30218" lon="5.84067">
        <ele>1320.3</ele>
        <time>2018-01-18T14:58:14Z</time>
      </trkpt>
      <trkpt lat="45.30209" lon="5.84071">
        <ele>1310</ele>
        <time>2018-01-18T14:58:56Z</time>
      </trkpt>
      <trkpt lat="45.30206" lon="5.84065">
        <ele>1309.7</ele>
        <time>2018-01-18T14:59:01Z</time>
      </trkpt>
      <trkpt lat="45.30195" lon="5.84051">
        <ele>1308.7</ele>
        <time>2018-01-18T14:59:06Z</time>
      </trkpt>
      <trkpt lat="45.30175" lon="5.84047">
        <ele>1307</ele>
        <time>2018-01-18T14:59:11Z</time>
      </trkpt>
      <trkpt lat="45.30102" lon="5.84071">
        <ele>1298.6</ele>
        <time>2018-01-18T14:59:26Z</time>
      </trkpt>
      <trkpt lat="45.30078" lon="5.84073">
        <ele>1295</ele>
        <time>2018-01-18T14:59:31Z</time>
      </trkpt>
      <trkpt lat="45.30006" lon="5.84078">
        <ele>1282.8</ele>
        <time>2018-01-18T14:59:46Z</time>
      </trkpt>
      <trkpt lat="45.29985" lon="5.84074">
        <ele>1278.9</ele>
        <time>2018-01-18T14:59:51Z</time>
      </trkpt>
      <trkpt lat="45.29969" lon="5.84068">
        <ele>1276.5</ele>
        <time>2018-01-18T14:59:56Z</time>
      </trkpt>
      <trkpt lat="45.29966" lon="5.84085">
        <ele>1275</ele>
        <time>2018-01-18T15:00:01Z</time>
      </trkpt>
      <trkpt lat="45.30015" lon="5.84133">
        <ele>1264.1</ele>
        <time>2018-01-18T15:00:16Z</time>
      </trkpt>
      <trkpt lat="45.30029" lon="5.8416">
        <ele>1259.2</ele>
        <time>2018-01-18T15:00:21Z</time>
      </trkpt>
      <trkpt lat="45.30017" lon="5.84191">
        <ele>1253.8</ele>
        <time>2018-01-18T15:00:26Z</time>
      </trkpt>
      <trkpt lat="45.29965" lon="5.84221">
        <ele>1247.1</ele>
        <time>2018-01-18T15:00:36Z</time>
      </trkpt>
      <trkpt lat="45.29895" lon="5.84285">
        <ele>1241.6</ele>
        <time>2018-01-18T15:00:51Z</time>
      </trkpt>
      <trkpt lat="45.29847" lon="5.84338">
        <ele>1235.2</ele>
        <time>2018-01-18T15:01:01Z</time>
      </trkpt>
      <trkpt lat="45.29825" lon="5.84355">
        <ele>1230.8</ele>
        <time>2018-01-18T15:01:06Z</time>
      </trkpt>
      <trkpt lat="45.29783" lon="5.84397">
        <ele>1222.7</ele>
        <time>2018-01-18T15:01:16Z</time>
      </trkpt>
      <trkpt lat="45.29773" lon="5.84419">
        <ele>1219.8</ele>
        <time>2018-01-18T15:01:21Z</time>
      </trkpt>
      <trkpt lat="45.29763" lon="5.84432">
        <ele>1217.6</ele>
        <time>2018-01-18T15:01:26Z</time>
      </trkpt>
      <trkpt lat="45.29747" lon="5.8443">
        <ele>1215.1</ele>
        <time>2018-01-18T15:01:36Z</time>
      </trkpt>
      <trkpt lat="45.29744" lon="5.84413">
        <ele>1214.2</ele>
        <time>2018-01-18T15:02:13Z</time>
      </trkpt>
      <trkpt lat="45.29744" lon="5.84414">
        <ele>1214.2</ele>
        <time>2018-01-18T15:02:19Z</time>
      </trkpt>
      <trkpt lat="45.29744" lon="5.84418">
        <ele>1214.1</ele>
        <time>2018-01-18T15:02:24Z</time>
      </trkpt>
      <trkpt lat="45.2973" lon="5.84433">
        <ele>1213.5</ele>
        <time>2018-01-18T15:02:39Z</time>
      </trkpt>
      <trkpt lat="45.29727" lon="5.84441">
        <ele>1213.3</ele>
        <time>2018-01-18T15:02:45Z</time>
      </trkpt>
      <trkpt lat="45.29712" lon="5.84455">
        <ele>1212.6</ele>
        <time>2018-01-18T15:03:01Z</time>
      </trkpt>
      <trkpt lat="45.297" lon="5.84474">
        <ele>1211.9</ele>
        <time>2018-01-18T15:03:18Z</time>
      </trkpt>
      <trkpt lat="45.29695" lon="5.84479">
        <ele>1211.6</ele>
        <time>2018-01-18T15:03:23Z</time>
      </trkpt>
      <trkpt lat="45.29668" lon="5.84506">
        <ele>1210</ele>
        <time>2018-01-18T15:03:51Z</time>
      </trkpt>
      <trkpt lat="45.29659" lon="5.84524">
        <ele>1209.2</ele>
        <time>2018-01-18T15:04:07Z</time>
      </trkpt>
      <trkpt lat="45.29635" lon="5.8455">
        <ele>1207.5</ele>
        <time>2018-01-18T15:04:29Z</time>
      </trkpt>
      <trkpt lat="45.29632" lon="5.84555">
        <ele>1207.3</ele>
        <time>2018-01-18T15:04:54Z</time>
      </trkpt>
      <trkpt lat="45.29637" lon="5.84554">
        <ele>1207</ele>
        <time>2018-01-18T15:05:38Z</time>
      </trkpt>
      <trkpt lat="45.29636" lon="5.84553">
        <ele>1206.9</ele>
        <time>2018-01-18T15:06:06Z</time>
      </trkpt>
      <trkpt lat="45.29634" lon="5.84548">
        <ele>1206.6</ele>
        <time>2018-01-18T15:06:37Z</time>
      </trkpt>
      <trkpt lat="45.29629" lon="5.84549">
        <ele>1206.3</ele>
        <time>2018-01-18T15:07:41Z</time>
      </trkpt>
      <trkpt lat="45.2963" lon="5.84547">
        <ele>1206.2</ele>
        <time>2018-01-18T15:08:06Z</time>
      </trkpt>
      <trkpt lat="45.29629" lon="5.84546">
        <ele>1206.1</ele>
        <time>2018-01-18T15:08:19Z</time>
      </trkpt>
      <trkpt lat="45.29628" lon="5.84554">
        <ele>1205.6</ele>
        <time>2018-01-18T15:10:48Z</time>
      </trkpt>
      <trkpt lat="45.29628" lon="5.84555">
        <ele>1205.5</ele>
        <time>2018-01-18T15:11:05Z</time>
      </trkpt>
      <trkpt lat="45.29631" lon="5.84555">
        <ele>1205.3</ele>
        <time>2018-01-18T15:11:23Z</time>
      </trkpt>
      <trkpt lat="45.29631" lon="5.8455">
        <ele>1205</ele>
        <time>2018-01-18T15:13:02Z</time>
      </trkpt>
      <trkpt lat="45.29635" lon="5.84551">
        <ele>1204.7</ele>
        <time>2018-01-18T15:13:51Z</time>
      </trkpt>
      <trkpt lat="45.29632" lon="5.84553">
        <ele>1204.4</ele>
        <time>2018-01-18T15:13:58Z</time>
      </trkpt>
      <trkpt lat="45.29634" lon="5.84547">
        <ele>1204</ele>
        <time>2018-01-18T15:14:16Z</time>
      </trkpt>
      <trkpt lat="45.29631" lon="5.84547">
        <ele>1203.7</ele>
        <time>2018-01-18T15:15:48Z</time>
      </trkpt>
      <trkpt lat="45.29637" lon="5.84549">
        <ele>1203.1</ele>
        <time>2018-01-18T15:16:28Z</time>
      </trkpt>
      <trkpt lat="45.2963" lon="5.84552">
        <ele>1202.3</ele>
        <time>2018-01-18T15:17:11Z</time>
      </trkpt>
      <trkpt lat="45.2963" lon="5.84554">
        <ele>1202.2</ele>
        <time>2018-01-18T15:17:49Z</time>
      </trkpt>
      <trkpt lat="45.29632" lon="5.84554">
        <ele>1202</ele>
        <time>2018-01-18T15:18:40Z</time>
      </trkpt>
      <trkpt lat="45.29636" lon="5.84557">
        <ele>1201.5</ele>
        <time>2018-01-18T15:19:01Z</time>
      </trkpt>
      <trkpt lat="45.29633" lon="5.84558">
        <ele>1201.3</ele>
        <time>2018-01-18T15:19:09Z</time>
      </trkpt>
      <trkpt lat="45.29631" lon="5.84557">
        <ele>1201.2</ele>
        <time>2018-01-18T15:19:16Z</time>
      </trkpt>
      <trkpt lat="45.2963" lon="5.84558">
        <ele>1201.1</ele>
        <time>2018-01-18T15:19:21Z</time>
      </trkpt>
      <trkpt lat="45.2963" lon="5.84558">
        <ele>1201</ele>
        <time>2018-01-18T15:19:29Z</time>
      </trkpt>
      <trkpt lat="45.29631" lon="5.84554">
        <ele>1200.8</ele>
        <time>2018-01-18T15:19:34Z</time>
      </trkpt>
      <trkpt lat="45.29629" lon="5.84534">
        <ele>1200.4</ele>
        <time>2018-01-18T15:19:39Z</time>
      </trkpt>
      <trkpt lat="45.29643" lon="5.84503">
        <ele>1200.8</ele>
        <time>2018-01-18T15:19:44Z</time>
      </trkpt>
      <trkpt lat="45.29545" lon="5.84127">
        <ele>1166.2</ele>
        <time>2018-01-18T15:19:46Z</time>
      </trkpt>
    </trkseg>
  </trk>
</gpx>